<?xml version="1.0" encoding="UTF-8" standalone="no" ?>
<gpx xmlns="http://www.topografix.com/GPX/1/1" xmlns:xsi="http://www.w3.org/2001/XMLSchema-instance" xsi:schemaLocation="http://www.topografix.com/GPX/1/1 http://www.topografix.com/GPX/1/1/gpx.xsd" version="1.1" creator="VisuGPX - https://www.visugpx.com">
  <metadata>
    <name>Bec pointu</name>
    <desc><![CDATA[A partir des arbots]]></desc>
  </metadata>
  <trk>
    <name><![CDATA[2019-10-10 16:35:27]]></name>
    <trkseg>
      <trkpt lat="44.85203" lon="5.21844">
        <ele>650.06</ele>
        <time>2019-10-10T07:53:25Z</time>
      </trkpt>
      <trkpt lat="44.85204" lon="5.21844">
        <ele>649.98</ele>
        <time>2019-10-10T07:53:26Z</time>
      </trkpt>
      <trkpt lat="44.85202" lon="5.21846">
        <ele>650.33</ele>
        <time>2019-10-10T07:54:10Z</time>
      </trkpt>
      <trkpt lat="44.85202" lon="5.21845">
        <ele>650.45</ele>
        <time>2019-10-10T07:54:48Z</time>
      </trkpt>
      <trkpt lat="44.85201" lon="5.21848">
        <ele>650.4</ele>
        <time>2019-10-10T07:55:39Z</time>
      </trkpt>
      <trkpt lat="44.85203" lon="5.21845">
        <ele>649.97</ele>
        <time>2019-10-10T07:56:54Z</time>
      </trkpt>
      <trkpt lat="44.85202" lon="5.21846">
        <ele>649.48</ele>
        <time>2019-10-10T07:57:48Z</time>
      </trkpt>
      <trkpt lat="44.85201" lon="5.21848">
        <ele>649</ele>
        <time>2019-10-10T07:58:39Z</time>
      </trkpt>
      <trkpt lat="44.85197" lon="5.21855">
        <ele>649.22</ele>
        <time>2019-10-10T07:58:55Z</time>
      </trkpt>
      <trkpt lat="44.85192" lon="5.21872">
        <ele>649.92</ele>
        <time>2019-10-10T07:59:13Z</time>
      </trkpt>
      <trkpt lat="44.85201" lon="5.21874">
        <ele>650.37</ele>
        <time>2019-10-10T07:59:31Z</time>
      </trkpt>
      <trkpt lat="44.85221" lon="5.21877">
        <ele>651.15</ele>
        <time>2019-10-10T07:59:58Z</time>
      </trkpt>
      <trkpt lat="44.8522" lon="5.21888">
        <ele>652</ele>
        <time>2019-10-10T08:00:07Z</time>
      </trkpt>
      <trkpt lat="44.85221" lon="5.21904">
        <ele>652.75</ele>
        <time>2019-10-10T08:00:19Z</time>
      </trkpt>
      <trkpt lat="44.85223" lon="5.21915">
        <ele>652.86</ele>
        <time>2019-10-10T08:00:26Z</time>
      </trkpt>
      <trkpt lat="44.85223" lon="5.21947">
        <ele>653.83</ele>
        <time>2019-10-10T08:00:47Z</time>
      </trkpt>
      <trkpt lat="44.85224" lon="5.21969">
        <ele>654.49</ele>
        <time>2019-10-10T08:01:00Z</time>
      </trkpt>
      <trkpt lat="44.85225" lon="5.2198">
        <ele>655.71</ele>
        <time>2019-10-10T08:01:17Z</time>
      </trkpt>
      <trkpt lat="44.85229" lon="5.22004">
        <ele>656.24</ele>
        <time>2019-10-10T08:01:33Z</time>
      </trkpt>
      <trkpt lat="44.85232" lon="5.22025">
        <ele>657.81</ele>
        <time>2019-10-10T08:01:48Z</time>
      </trkpt>
      <trkpt lat="44.85233" lon="5.2203">
        <ele>657.91</ele>
        <time>2019-10-10T08:01:51Z</time>
      </trkpt>
      <trkpt lat="44.85232" lon="5.22038">
        <ele>657.99</ele>
        <time>2019-10-10T08:01:56Z</time>
      </trkpt>
      <trkpt lat="44.85232" lon="5.22058">
        <ele>658.18</ele>
        <time>2019-10-10T08:02:07Z</time>
      </trkpt>
      <trkpt lat="44.85231" lon="5.22083">
        <ele>658.31</ele>
        <time>2019-10-10T08:02:22Z</time>
      </trkpt>
      <trkpt lat="44.85233" lon="5.221">
        <ele>658.45</ele>
        <time>2019-10-10T08:02:49Z</time>
      </trkpt>
      <trkpt lat="44.85229" lon="5.22109">
        <ele>658.65</ele>
        <time>2019-10-10T08:02:57Z</time>
      </trkpt>
      <trkpt lat="44.85225" lon="5.2212">
        <ele>659.05</ele>
        <time>2019-10-10T08:03:03Z</time>
      </trkpt>
      <trkpt lat="44.85224" lon="5.22127">
        <ele>659.14</ele>
        <time>2019-10-10T08:03:07Z</time>
      </trkpt>
      <trkpt lat="44.85223" lon="5.22131">
        <ele>659.19</ele>
        <time>2019-10-10T08:03:10Z</time>
      </trkpt>
      <trkpt lat="44.85222" lon="5.22154">
        <ele>659.31</ele>
        <time>2019-10-10T08:03:23Z</time>
      </trkpt>
      <trkpt lat="44.85226" lon="5.22181">
        <ele>660.08</ele>
        <time>2019-10-10T08:03:39Z</time>
      </trkpt>
      <trkpt lat="44.85231" lon="5.22208">
        <ele>661.41</ele>
        <time>2019-10-10T08:03:59Z</time>
      </trkpt>
      <trkpt lat="44.85231" lon="5.22209">
        <ele>661.5</ele>
        <time>2019-10-10T08:04:00Z</time>
      </trkpt>
      <trkpt lat="44.85231" lon="5.22231">
        <ele>662.76</ele>
        <time>2019-10-10T08:04:15Z</time>
      </trkpt>
      <trkpt lat="44.8523" lon="5.22237">
        <ele>662.99</ele>
        <time>2019-10-10T08:04:19Z</time>
      </trkpt>
      <trkpt lat="44.8523" lon="5.22244">
        <ele>663.08</ele>
        <time>2019-10-10T08:04:22Z</time>
      </trkpt>
      <trkpt lat="44.85225" lon="5.22266">
        <ele>663.33</ele>
        <time>2019-10-10T08:04:35Z</time>
      </trkpt>
      <trkpt lat="44.85225" lon="5.22268">
        <ele>663.33</ele>
        <time>2019-10-10T08:04:36Z</time>
      </trkpt>
      <trkpt lat="44.85218" lon="5.2229">
        <ele>663.17</ele>
        <time>2019-10-10T08:04:50Z</time>
      </trkpt>
      <trkpt lat="44.85212" lon="5.2231">
        <ele>663.23</ele>
        <time>2019-10-10T08:05:02Z</time>
      </trkpt>
      <trkpt lat="44.85203" lon="5.22331">
        <ele>663.33</ele>
        <time>2019-10-10T08:05:20Z</time>
      </trkpt>
      <trkpt lat="44.85188" lon="5.22349">
        <ele>663.59</ele>
        <time>2019-10-10T08:05:33Z</time>
      </trkpt>
      <trkpt lat="44.85185" lon="5.22351">
        <ele>663.6</ele>
        <time>2019-10-10T08:05:36Z</time>
      </trkpt>
      <trkpt lat="44.85182" lon="5.22356">
        <ele>663.6</ele>
        <time>2019-10-10T08:05:39Z</time>
      </trkpt>
      <trkpt lat="44.85181" lon="5.22359">
        <ele>663.56</ele>
        <time>2019-10-10T08:05:41Z</time>
      </trkpt>
      <trkpt lat="44.8518" lon="5.22376">
        <ele>663.16</ele>
        <time>2019-10-10T08:05:52Z</time>
      </trkpt>
      <trkpt lat="44.85183" lon="5.22383">
        <ele>662.86</ele>
        <time>2019-10-10T08:05:56Z</time>
      </trkpt>
      <trkpt lat="44.85184" lon="5.22392">
        <ele>662.69</ele>
        <time>2019-10-10T08:05:59Z</time>
      </trkpt>
      <trkpt lat="44.85186" lon="5.22427">
        <ele>663.11</ele>
        <time>2019-10-10T08:06:20Z</time>
      </trkpt>
      <trkpt lat="44.8518" lon="5.22451">
        <ele>664.33</ele>
        <time>2019-10-10T08:06:37Z</time>
      </trkpt>
      <trkpt lat="44.85173" lon="5.22491">
        <ele>664.55</ele>
        <time>2019-10-10T08:07:04Z</time>
      </trkpt>
      <trkpt lat="44.85175" lon="5.22525">
        <ele>665.25</ele>
        <time>2019-10-10T08:07:28Z</time>
      </trkpt>
      <trkpt lat="44.85169" lon="5.22553">
        <ele>666.41</ele>
        <time>2019-10-10T08:07:48Z</time>
      </trkpt>
      <trkpt lat="44.85162" lon="5.22573">
        <ele>667.23</ele>
        <time>2019-10-10T08:08:05Z</time>
      </trkpt>
      <trkpt lat="44.85154" lon="5.22593">
        <ele>667.79</ele>
        <time>2019-10-10T08:08:18Z</time>
      </trkpt>
      <trkpt lat="44.85152" lon="5.22622">
        <ele>669.49</ele>
        <time>2019-10-10T08:08:36Z</time>
      </trkpt>
      <trkpt lat="44.85148" lon="5.22647">
        <ele>670.27</ele>
        <time>2019-10-10T08:08:50Z</time>
      </trkpt>
      <trkpt lat="44.85148" lon="5.22655">
        <ele>670.44</ele>
        <time>2019-10-10T08:08:55Z</time>
      </trkpt>
      <trkpt lat="44.85148" lon="5.22671">
        <ele>670.67</ele>
        <time>2019-10-10T08:09:07Z</time>
      </trkpt>
      <trkpt lat="44.85151" lon="5.22694">
        <ele>671.55</ele>
        <time>2019-10-10T08:09:20Z</time>
      </trkpt>
      <trkpt lat="44.8515" lon="5.22698">
        <ele>671.75</ele>
        <time>2019-10-10T08:09:23Z</time>
      </trkpt>
      <trkpt lat="44.85149" lon="5.22711">
        <ele>672.34</ele>
        <time>2019-10-10T08:09:31Z</time>
      </trkpt>
      <trkpt lat="44.8515" lon="5.22714">
        <ele>672.64</ele>
        <time>2019-10-10T08:09:33Z</time>
      </trkpt>
      <trkpt lat="44.85147" lon="5.22719">
        <ele>672.8</ele>
        <time>2019-10-10T08:09:37Z</time>
      </trkpt>
      <trkpt lat="44.85145" lon="5.22726">
        <ele>672.92</ele>
        <time>2019-10-10T08:09:43Z</time>
      </trkpt>
      <trkpt lat="44.85141" lon="5.22744">
        <ele>673.48</ele>
        <time>2019-10-10T08:09:57Z</time>
      </trkpt>
      <trkpt lat="44.85135" lon="5.22753">
        <ele>674.08</ele>
        <time>2019-10-10T08:10:06Z</time>
      </trkpt>
      <trkpt lat="44.85133" lon="5.22757">
        <ele>674.2</ele>
        <time>2019-10-10T08:10:09Z</time>
      </trkpt>
      <trkpt lat="44.85128" lon="5.22763">
        <ele>674.61</ele>
        <time>2019-10-10T08:10:14Z</time>
      </trkpt>
      <trkpt lat="44.85122" lon="5.22774">
        <ele>675.38</ele>
        <time>2019-10-10T08:10:22Z</time>
      </trkpt>
      <trkpt lat="44.85115" lon="5.22787">
        <ele>676.43</ele>
        <time>2019-10-10T08:10:38Z</time>
      </trkpt>
      <trkpt lat="44.85111" lon="5.22804">
        <ele>676.73</ele>
        <time>2019-10-10T08:10:55Z</time>
      </trkpt>
      <trkpt lat="44.85109" lon="5.22824">
        <ele>678.78</ele>
        <time>2019-10-10T08:11:15Z</time>
      </trkpt>
      <trkpt lat="44.85111" lon="5.22834">
        <ele>679.74</ele>
        <time>2019-10-10T08:11:26Z</time>
      </trkpt>
      <trkpt lat="44.8512" lon="5.22862">
        <ele>683.18</ele>
        <time>2019-10-10T08:11:50Z</time>
      </trkpt>
      <trkpt lat="44.85117" lon="5.22876">
        <ele>685.5</ele>
        <time>2019-10-10T08:12:09Z</time>
      </trkpt>
      <trkpt lat="44.85107" lon="5.22877">
        <ele>686.32</ele>
        <time>2019-10-10T08:12:21Z</time>
      </trkpt>
      <trkpt lat="44.85101" lon="5.22876">
        <ele>686.66</ele>
        <time>2019-10-10T08:12:29Z</time>
      </trkpt>
      <trkpt lat="44.85096" lon="5.22875">
        <ele>686.8</ele>
        <time>2019-10-10T08:12:35Z</time>
      </trkpt>
      <trkpt lat="44.85091" lon="5.22877">
        <ele>687.5</ele>
        <time>2019-10-10T08:12:40Z</time>
      </trkpt>
      <trkpt lat="44.85078" lon="5.22874">
        <ele>688.99</ele>
        <time>2019-10-10T08:12:54Z</time>
      </trkpt>
      <trkpt lat="44.85072" lon="5.22873">
        <ele>689.7</ele>
        <time>2019-10-10T08:13:01Z</time>
      </trkpt>
      <trkpt lat="44.85063" lon="5.22875">
        <ele>691.38</ele>
        <time>2019-10-10T08:13:13Z</time>
      </trkpt>
      <trkpt lat="44.85061" lon="5.22876">
        <ele>691.54</ele>
        <time>2019-10-10T08:13:16Z</time>
      </trkpt>
      <trkpt lat="44.85051" lon="5.22883">
        <ele>692.7</ele>
        <time>2019-10-10T08:13:29Z</time>
      </trkpt>
      <trkpt lat="44.85045" lon="5.22883">
        <ele>693.31</ele>
        <time>2019-10-10T08:13:36Z</time>
      </trkpt>
      <trkpt lat="44.85036" lon="5.22886">
        <ele>694.86</ele>
        <time>2019-10-10T08:13:47Z</time>
      </trkpt>
      <trkpt lat="44.85027" lon="5.22889">
        <ele>696.12</ele>
        <time>2019-10-10T08:13:57Z</time>
      </trkpt>
      <trkpt lat="44.85017" lon="5.22892">
        <ele>697.18</ele>
        <time>2019-10-10T08:14:08Z</time>
      </trkpt>
      <trkpt lat="44.85012" lon="5.22894">
        <ele>697.78</ele>
        <time>2019-10-10T08:14:14Z</time>
      </trkpt>
      <trkpt lat="44.85005" lon="5.22902">
        <ele>698.38</ele>
        <time>2019-10-10T08:14:28Z</time>
      </trkpt>
      <trkpt lat="44.85003" lon="5.22907">
        <ele>699.15</ele>
        <time>2019-10-10T08:14:46Z</time>
      </trkpt>
      <trkpt lat="44.85001" lon="5.22911">
        <ele>699.27</ele>
        <time>2019-10-10T08:14:49Z</time>
      </trkpt>
      <trkpt lat="44.85001" lon="5.22914">
        <ele>699.58</ele>
        <time>2019-10-10T08:14:51Z</time>
      </trkpt>
      <trkpt lat="44.84987" lon="5.22918">
        <ele>701.42</ele>
        <time>2019-10-10T08:15:04Z</time>
      </trkpt>
      <trkpt lat="44.84985" lon="5.22919">
        <ele>701.59</ele>
        <time>2019-10-10T08:15:06Z</time>
      </trkpt>
      <trkpt lat="44.84976" lon="5.22917">
        <ele>702.18</ele>
        <time>2019-10-10T08:15:15Z</time>
      </trkpt>
      <trkpt lat="44.84962" lon="5.22926">
        <ele>701.97</ele>
        <time>2019-10-10T08:15:30Z</time>
      </trkpt>
      <trkpt lat="44.84948" lon="5.22924">
        <ele>700.42</ele>
        <time>2019-10-10T08:15:54Z</time>
      </trkpt>
      <trkpt lat="44.84957" lon="5.22909">
        <ele>701.8</ele>
        <time>2019-10-10T08:16:12Z</time>
      </trkpt>
      <trkpt lat="44.84961" lon="5.22905">
        <ele>702.02</ele>
        <time>2019-10-10T08:16:16Z</time>
      </trkpt>
      <trkpt lat="44.84962" lon="5.22888">
        <ele>703.4</ele>
        <time>2019-10-10T08:16:32Z</time>
      </trkpt>
      <trkpt lat="44.8495" lon="5.22886">
        <ele>705.57</ele>
        <time>2019-10-10T08:16:45Z</time>
      </trkpt>
      <trkpt lat="44.84937" lon="5.22889">
        <ele>706.84</ele>
        <time>2019-10-10T08:17:03Z</time>
      </trkpt>
      <trkpt lat="44.8493" lon="5.2289">
        <ele>708</ele>
        <time>2019-10-10T08:17:13Z</time>
      </trkpt>
      <trkpt lat="44.84919" lon="5.22888">
        <ele>710.18</ele>
        <time>2019-10-10T08:17:27Z</time>
      </trkpt>
      <trkpt lat="44.84906" lon="5.2289">
        <ele>711.34</ele>
        <time>2019-10-10T08:17:43Z</time>
      </trkpt>
      <trkpt lat="44.84893" lon="5.22888">
        <ele>713.88</ele>
        <time>2019-10-10T08:18:00Z</time>
      </trkpt>
      <trkpt lat="44.84877" lon="5.22886">
        <ele>716.28</ele>
        <time>2019-10-10T08:18:19Z</time>
      </trkpt>
      <trkpt lat="44.8486" lon="5.22883">
        <ele>718.26</ele>
        <time>2019-10-10T08:18:39Z</time>
      </trkpt>
      <trkpt lat="44.84845" lon="5.22886">
        <ele>719.95</ele>
        <time>2019-10-10T08:18:56Z</time>
      </trkpt>
      <trkpt lat="44.84832" lon="5.22886">
        <ele>722.96</ele>
        <time>2019-10-10T08:19:16Z</time>
      </trkpt>
      <trkpt lat="44.84813" lon="5.22879">
        <ele>725.84</ele>
        <time>2019-10-10T08:19:39Z</time>
      </trkpt>
      <trkpt lat="44.84798" lon="5.22874">
        <ele>729.03</ele>
        <time>2019-10-10T08:20:02Z</time>
      </trkpt>
      <trkpt lat="44.8478" lon="5.22869">
        <ele>732.17</ele>
        <time>2019-10-10T08:20:27Z</time>
      </trkpt>
      <trkpt lat="44.8476" lon="5.22868">
        <ele>735.23</ele>
        <time>2019-10-10T08:20:50Z</time>
      </trkpt>
      <trkpt lat="44.84743" lon="5.22868">
        <ele>738.26</ele>
        <time>2019-10-10T08:21:13Z</time>
      </trkpt>
      <trkpt lat="44.84727" lon="5.2287">
        <ele>740.95</ele>
        <time>2019-10-10T08:21:35Z</time>
      </trkpt>
      <trkpt lat="44.84711" lon="5.2287">
        <ele>744</ele>
        <time>2019-10-10T08:22:00Z</time>
      </trkpt>
      <trkpt lat="44.84713" lon="5.2288">
        <ele>746.27</ele>
        <time>2019-10-10T08:22:13Z</time>
      </trkpt>
      <trkpt lat="44.84724" lon="5.22889">
        <ele>749.11</ele>
        <time>2019-10-10T08:22:30Z</time>
      </trkpt>
      <trkpt lat="44.84737" lon="5.22903">
        <ele>752.01</ele>
        <time>2019-10-10T08:22:47Z</time>
      </trkpt>
      <trkpt lat="44.84752" lon="5.22924">
        <ele>754.84</ele>
        <time>2019-10-10T08:23:08Z</time>
      </trkpt>
      <trkpt lat="44.84759" lon="5.22943">
        <ele>757.86</ele>
        <time>2019-10-10T08:23:33Z</time>
      </trkpt>
      <trkpt lat="44.84763" lon="5.22959">
        <ele>760.98</ele>
        <time>2019-10-10T08:23:52Z</time>
      </trkpt>
      <trkpt lat="44.84764" lon="5.22975">
        <ele>763.34</ele>
        <time>2019-10-10T08:24:10Z</time>
      </trkpt>
      <trkpt lat="44.84755" lon="5.22984">
        <ele>765.45</ele>
        <time>2019-10-10T08:24:28Z</time>
      </trkpt>
      <trkpt lat="44.84746" lon="5.22977">
        <ele>766.99</ele>
        <time>2019-10-10T08:24:48Z</time>
      </trkpt>
      <trkpt lat="44.84745" lon="5.22971">
        <ele>769.07</ele>
        <time>2019-10-10T08:25:17Z</time>
      </trkpt>
      <trkpt lat="44.84742" lon="5.22967">
        <ele>770.02</ele>
        <time>2019-10-10T08:26:18Z</time>
      </trkpt>
      <trkpt lat="44.84743" lon="5.22963">
        <ele>769.67</ele>
        <time>2019-10-10T08:26:51Z</time>
      </trkpt>
      <trkpt lat="44.84736" lon="5.22966">
        <ele>770.22</ele>
        <time>2019-10-10T08:27:27Z</time>
      </trkpt>
      <trkpt lat="44.84726" lon="5.22966">
        <ele>772.68</ele>
        <time>2019-10-10T08:27:50Z</time>
      </trkpt>
      <trkpt lat="44.84715" lon="5.22973">
        <ele>774.49</ele>
        <time>2019-10-10T08:28:07Z</time>
      </trkpt>
      <trkpt lat="44.84706" lon="5.22985">
        <ele>776.52</ele>
        <time>2019-10-10T08:28:24Z</time>
      </trkpt>
      <trkpt lat="44.84706" lon="5.22997">
        <ele>779.01</ele>
        <time>2019-10-10T08:28:46Z</time>
      </trkpt>
      <trkpt lat="44.84706" lon="5.23001">
        <ele>779.3</ele>
        <time>2019-10-10T08:28:55Z</time>
      </trkpt>
      <trkpt lat="44.84708" lon="5.23005">
        <ele>780.27</ele>
        <time>2019-10-10T08:29:09Z</time>
      </trkpt>
      <trkpt lat="44.84707" lon="5.23004">
        <ele>780.43</ele>
        <time>2019-10-10T08:29:50Z</time>
      </trkpt>
      <trkpt lat="44.84709" lon="5.2303">
        <ele>782.22</ele>
        <time>2019-10-10T08:30:21Z</time>
      </trkpt>
      <trkpt lat="44.84707" lon="5.23061">
        <ele>785.28</ele>
        <time>2019-10-10T08:30:47Z</time>
      </trkpt>
      <trkpt lat="44.84707" lon="5.23077">
        <ele>788.29</ele>
        <time>2019-10-10T08:31:08Z</time>
      </trkpt>
      <trkpt lat="44.84708" lon="5.23083">
        <ele>788.46</ele>
        <time>2019-10-10T08:31:55Z</time>
      </trkpt>
      <trkpt lat="44.84703" lon="5.23099">
        <ele>790.08</ele>
        <time>2019-10-10T08:32:14Z</time>
      </trkpt>
      <trkpt lat="44.84693" lon="5.231">
        <ele>793.18</ele>
        <time>2019-10-10T08:32:30Z</time>
      </trkpt>
      <trkpt lat="44.84685" lon="5.23099">
        <ele>796.22</ele>
        <time>2019-10-10T08:32:54Z</time>
      </trkpt>
      <trkpt lat="44.84672" lon="5.23095">
        <ele>798.54</ele>
        <time>2019-10-10T08:33:14Z</time>
      </trkpt>
      <trkpt lat="44.8466" lon="5.2309">
        <ele>801.49</ele>
        <time>2019-10-10T08:33:32Z</time>
      </trkpt>
      <trkpt lat="44.84644" lon="5.23092">
        <ele>804.62</ele>
        <time>2019-10-10T08:33:55Z</time>
      </trkpt>
      <trkpt lat="44.84627" lon="5.23094">
        <ele>807.71</ele>
        <time>2019-10-10T08:34:18Z</time>
      </trkpt>
      <trkpt lat="44.84612" lon="5.23092">
        <ele>810.79</ele>
        <time>2019-10-10T08:34:40Z</time>
      </trkpt>
      <trkpt lat="44.84596" lon="5.23092">
        <ele>813.83</ele>
        <time>2019-10-10T08:35:02Z</time>
      </trkpt>
      <trkpt lat="44.84587" lon="5.23093">
        <ele>815.4</ele>
        <time>2019-10-10T08:35:13Z</time>
      </trkpt>
      <trkpt lat="44.84585" lon="5.23103">
        <ele>818.68</ele>
        <time>2019-10-10T08:35:26Z</time>
      </trkpt>
      <trkpt lat="44.84591" lon="5.23118">
        <ele>821.53</ele>
        <time>2019-10-10T08:35:48Z</time>
      </trkpt>
      <trkpt lat="44.84593" lon="5.23137">
        <ele>824.73</ele>
        <time>2019-10-10T08:36:12Z</time>
      </trkpt>
      <trkpt lat="44.84588" lon="5.23146">
        <ele>827.33</ele>
        <time>2019-10-10T08:36:26Z</time>
      </trkpt>
      <trkpt lat="44.84586" lon="5.2315">
        <ele>829.4</ele>
        <time>2019-10-10T08:36:58Z</time>
      </trkpt>
      <trkpt lat="44.84584" lon="5.2315">
        <ele>828.92</ele>
        <time>2019-10-10T08:37:51Z</time>
      </trkpt>
      <trkpt lat="44.84584" lon="5.23152">
        <ele>829.37</ele>
        <time>2019-10-10T08:38:28Z</time>
      </trkpt>
      <trkpt lat="44.84581" lon="5.23167">
        <ele>830.75</ele>
        <time>2019-10-10T08:38:51Z</time>
      </trkpt>
      <trkpt lat="44.84582" lon="5.23181">
        <ele>832.47</ele>
        <time>2019-10-10T08:39:14Z</time>
      </trkpt>
      <trkpt lat="44.84585" lon="5.23195">
        <ele>836.03</ele>
        <time>2019-10-10T08:39:33Z</time>
      </trkpt>
      <trkpt lat="44.84585" lon="5.23198">
        <ele>836.69</ele>
        <time>2019-10-10T08:39:38Z</time>
      </trkpt>
      <trkpt lat="44.84582" lon="5.23218">
        <ele>839.78</ele>
        <time>2019-10-10T08:40:00Z</time>
      </trkpt>
      <trkpt lat="44.8458" lon="5.23233">
        <ele>843.17</ele>
        <time>2019-10-10T08:40:24Z</time>
      </trkpt>
      <trkpt lat="44.84577" lon="5.23248">
        <ele>846.38</ele>
        <time>2019-10-10T08:40:45Z</time>
      </trkpt>
      <trkpt lat="44.84574" lon="5.23265">
        <ele>849.49</ele>
        <time>2019-10-10T08:41:05Z</time>
      </trkpt>
      <trkpt lat="44.84576" lon="5.23277">
        <ele>852.6</ele>
        <time>2019-10-10T08:41:24Z</time>
      </trkpt>
      <trkpt lat="44.84578" lon="5.23293">
        <ele>855.64</ele>
        <time>2019-10-10T08:41:47Z</time>
      </trkpt>
      <trkpt lat="44.84582" lon="5.23306">
        <ele>858.69</ele>
        <time>2019-10-10T08:42:09Z</time>
      </trkpt>
      <trkpt lat="44.84587" lon="5.23322">
        <ele>861.73</ele>
        <time>2019-10-10T08:42:32Z</time>
      </trkpt>
      <trkpt lat="44.84591" lon="5.23336">
        <ele>864.84</ele>
        <time>2019-10-10T08:42:51Z</time>
      </trkpt>
      <trkpt lat="44.84592" lon="5.23346">
        <ele>868.04</ele>
        <time>2019-10-10T08:43:09Z</time>
      </trkpt>
      <trkpt lat="44.84597" lon="5.23359">
        <ele>871.27</ele>
        <time>2019-10-10T08:43:30Z</time>
      </trkpt>
      <trkpt lat="44.84599" lon="5.23361">
        <ele>874.41</ele>
        <time>2019-10-10T08:43:53Z</time>
      </trkpt>
      <trkpt lat="44.84599" lon="5.2337">
        <ele>877.47</ele>
        <time>2019-10-10T08:44:16Z</time>
      </trkpt>
      <trkpt lat="44.84594" lon="5.23375">
        <ele>880.52</ele>
        <time>2019-10-10T08:44:28Z</time>
      </trkpt>
      <trkpt lat="44.84595" lon="5.23373">
        <ele>881.61</ele>
        <time>2019-10-10T08:45:07Z</time>
      </trkpt>
      <trkpt lat="44.84593" lon="5.23375">
        <ele>882.02</ele>
        <time>2019-10-10T08:45:57Z</time>
      </trkpt>
      <trkpt lat="44.84596" lon="5.23379">
        <ele>882.09</ele>
        <time>2019-10-10T08:46:53Z</time>
      </trkpt>
      <trkpt lat="44.84597" lon="5.2338">
        <ele>881.8</ele>
        <time>2019-10-10T08:47:46Z</time>
      </trkpt>
      <trkpt lat="44.84594" lon="5.23383">
        <ele>881.03</ele>
        <time>2019-10-10T08:48:35Z</time>
      </trkpt>
      <trkpt lat="44.84583" lon="5.234">
        <ele>883.78</ele>
        <time>2019-10-10T08:48:59Z</time>
      </trkpt>
      <trkpt lat="44.84573" lon="5.23403">
        <ele>886.9</ele>
        <time>2019-10-10T08:49:18Z</time>
      </trkpt>
      <trkpt lat="44.84568" lon="5.23417">
        <ele>889.84</ele>
        <time>2019-10-10T08:49:33Z</time>
      </trkpt>
      <trkpt lat="44.84564" lon="5.23435">
        <ele>892.84</ele>
        <time>2019-10-10T08:49:52Z</time>
      </trkpt>
      <trkpt lat="44.84559" lon="5.23449">
        <ele>895.94</ele>
        <time>2019-10-10T08:50:07Z</time>
      </trkpt>
      <trkpt lat="44.84554" lon="5.23466">
        <ele>899.08</ele>
        <time>2019-10-10T08:50:24Z</time>
      </trkpt>
      <trkpt lat="44.84548" lon="5.23486">
        <ele>900.44</ele>
        <time>2019-10-10T08:50:44Z</time>
      </trkpt>
      <trkpt lat="44.84546" lon="5.23509">
        <ele>903.59</ele>
        <time>2019-10-10T08:51:09Z</time>
      </trkpt>
      <trkpt lat="44.84547" lon="5.23516">
        <ele>905.17</ele>
        <time>2019-10-10T08:51:18Z</time>
      </trkpt>
      <trkpt lat="44.8454" lon="5.23535">
        <ele>907.83</ele>
        <time>2019-10-10T08:51:45Z</time>
      </trkpt>
      <trkpt lat="44.84533" lon="5.23546">
        <ele>910.87</ele>
        <time>2019-10-10T08:52:01Z</time>
      </trkpt>
      <trkpt lat="44.84527" lon="5.23556">
        <ele>913.95</ele>
        <time>2019-10-10T08:52:16Z</time>
      </trkpt>
      <trkpt lat="44.84525" lon="5.2357">
        <ele>916.97</ele>
        <time>2019-10-10T08:52:34Z</time>
      </trkpt>
      <trkpt lat="44.84528" lon="5.2358">
        <ele>919.79</ele>
        <time>2019-10-10T08:53:01Z</time>
      </trkpt>
      <trkpt lat="44.84523" lon="5.23587">
        <ele>922.98</ele>
        <time>2019-10-10T08:53:26Z</time>
      </trkpt>
      <trkpt lat="44.84516" lon="5.2359">
        <ele>925.98</ele>
        <time>2019-10-10T08:53:41Z</time>
      </trkpt>
      <trkpt lat="44.84508" lon="5.23601">
        <ele>929.12</ele>
        <time>2019-10-10T08:54:05Z</time>
      </trkpt>
      <trkpt lat="44.84503" lon="5.23607">
        <ele>932.26</ele>
        <time>2019-10-10T08:54:23Z</time>
      </trkpt>
      <trkpt lat="44.84494" lon="5.23613">
        <ele>935.39</ele>
        <time>2019-10-10T08:54:41Z</time>
      </trkpt>
      <trkpt lat="44.84484" lon="5.2362">
        <ele>938.43</ele>
        <time>2019-10-10T08:55:03Z</time>
      </trkpt>
      <trkpt lat="44.84477" lon="5.23621">
        <ele>941.61</ele>
        <time>2019-10-10T08:55:21Z</time>
      </trkpt>
      <trkpt lat="44.84468" lon="5.23625">
        <ele>944.73</ele>
        <time>2019-10-10T08:55:44Z</time>
      </trkpt>
      <trkpt lat="44.84467" lon="5.23625">
        <ele>946.96</ele>
        <time>2019-10-10T08:56:27Z</time>
      </trkpt>
      <trkpt lat="44.84468" lon="5.23624">
        <ele>946.92</ele>
        <time>2019-10-10T08:56:51Z</time>
      </trkpt>
      <trkpt lat="44.84468" lon="5.23619">
        <ele>947.08</ele>
        <time>2019-10-10T08:57:32Z</time>
      </trkpt>
      <trkpt lat="44.84467" lon="5.23624">
        <ele>947.09</ele>
        <time>2019-10-10T08:58:21Z</time>
      </trkpt>
      <trkpt lat="44.84468" lon="5.23623">
        <ele>946.68</ele>
        <time>2019-10-10T08:59:18Z</time>
      </trkpt>
      <trkpt lat="44.84468" lon="5.23625">
        <ele>946.77</ele>
        <time>2019-10-10T09:00:29Z</time>
      </trkpt>
      <trkpt lat="44.84466" lon="5.23625">
        <ele>946.39</ele>
        <time>2019-10-10T09:01:29Z</time>
      </trkpt>
      <trkpt lat="44.84461" lon="5.23634">
        <ele>947.03</ele>
        <time>2019-10-10T09:02:00Z</time>
      </trkpt>
      <trkpt lat="44.84455" lon="5.23636">
        <ele>950.24</ele>
        <time>2019-10-10T09:02:13Z</time>
      </trkpt>
      <trkpt lat="44.84451" lon="5.23642">
        <ele>953.27</ele>
        <time>2019-10-10T09:02:26Z</time>
      </trkpt>
      <trkpt lat="44.84444" lon="5.23642">
        <ele>956.48</ele>
        <time>2019-10-10T09:02:39Z</time>
      </trkpt>
      <trkpt lat="44.84447" lon="5.23652">
        <ele>959.57</ele>
        <time>2019-10-10T09:03:02Z</time>
      </trkpt>
      <trkpt lat="44.84455" lon="5.23662">
        <ele>962.61</ele>
        <time>2019-10-10T09:03:21Z</time>
      </trkpt>
      <trkpt lat="44.84465" lon="5.2367">
        <ele>963.61</ele>
        <time>2019-10-10T09:03:41Z</time>
      </trkpt>
      <trkpt lat="44.84469" lon="5.23674">
        <ele>966.73</ele>
        <time>2019-10-10T09:03:53Z</time>
      </trkpt>
      <trkpt lat="44.84473" lon="5.23684">
        <ele>969.86</ele>
        <time>2019-10-10T09:04:08Z</time>
      </trkpt>
      <trkpt lat="44.84477" lon="5.2369">
        <ele>972.98</ele>
        <time>2019-10-10T09:04:24Z</time>
      </trkpt>
      <trkpt lat="44.84479" lon="5.23698">
        <ele>976.09</ele>
        <time>2019-10-10T09:04:40Z</time>
      </trkpt>
      <trkpt lat="44.84486" lon="5.23704">
        <ele>979.1</ele>
        <time>2019-10-10T09:04:57Z</time>
      </trkpt>
      <trkpt lat="44.84486" lon="5.23716">
        <ele>982.13</ele>
        <time>2019-10-10T09:05:20Z</time>
      </trkpt>
      <trkpt lat="44.84476" lon="5.23722">
        <ele>985.16</ele>
        <time>2019-10-10T09:05:41Z</time>
      </trkpt>
      <trkpt lat="44.84464" lon="5.2372">
        <ele>988.26</ele>
        <time>2019-10-10T09:06:01Z</time>
      </trkpt>
      <trkpt lat="44.84457" lon="5.23723">
        <ele>991.28</ele>
        <time>2019-10-10T09:06:17Z</time>
      </trkpt>
      <trkpt lat="44.8445" lon="5.23725">
        <ele>994.32</ele>
        <time>2019-10-10T09:06:32Z</time>
      </trkpt>
      <trkpt lat="44.84441" lon="5.23728">
        <ele>997.33</ele>
        <time>2019-10-10T09:06:48Z</time>
      </trkpt>
      <trkpt lat="44.84437" lon="5.23731">
        <ele>999.29</ele>
        <time>2019-10-10T09:07:22Z</time>
      </trkpt>
      <trkpt lat="44.84439" lon="5.23734">
        <ele>999.59</ele>
        <time>2019-10-10T09:08:07Z</time>
      </trkpt>
      <trkpt lat="44.8444" lon="5.23734">
        <ele>998.87</ele>
        <time>2019-10-10T09:08:12Z</time>
      </trkpt>
      <trkpt lat="44.84446" lon="5.23735">
        <ele>997.45</ele>
        <time>2019-10-10T09:08:43Z</time>
      </trkpt>
      <trkpt lat="44.84436" lon="5.23732">
        <ele>998.14</ele>
        <time>2019-10-10T09:08:59Z</time>
      </trkpt>
      <trkpt lat="44.8444" lon="5.23729">
        <ele>1000.25</ele>
        <time>2019-10-10T09:10:02Z</time>
      </trkpt>
      <trkpt lat="44.84437" lon="5.23729">
        <ele>998.93</ele>
        <time>2019-10-10T09:11:19Z</time>
      </trkpt>
      <trkpt lat="44.84439" lon="5.23732">
        <ele>999.54</ele>
        <time>2019-10-10T09:12:15Z</time>
      </trkpt>
      <trkpt lat="44.84436" lon="5.23724">
        <ele>1000.06</ele>
        <time>2019-10-10T09:13:16Z</time>
      </trkpt>
      <trkpt lat="44.84425" lon="5.23727">
        <ele>1001.25</ele>
        <time>2019-10-10T09:14:03Z</time>
      </trkpt>
      <trkpt lat="44.84414" lon="5.23728">
        <ele>1004.36</ele>
        <time>2019-10-10T09:14:24Z</time>
      </trkpt>
      <trkpt lat="44.84407" lon="5.23734">
        <ele>1007.37</ele>
        <time>2019-10-10T09:14:42Z</time>
      </trkpt>
      <trkpt lat="44.84399" lon="5.23736">
        <ele>1010.39</ele>
        <time>2019-10-10T09:14:56Z</time>
      </trkpt>
      <trkpt lat="44.84388" lon="5.23735">
        <ele>1013.47</ele>
        <time>2019-10-10T09:15:13Z</time>
      </trkpt>
      <trkpt lat="44.8438" lon="5.23733">
        <ele>1016.37</ele>
        <time>2019-10-10T09:15:30Z</time>
      </trkpt>
      <trkpt lat="44.84365" lon="5.23733">
        <ele>1019.43</ele>
        <time>2019-10-10T09:15:55Z</time>
      </trkpt>
      <trkpt lat="44.84355" lon="5.23735">
        <ele>1021.67</ele>
        <time>2019-10-10T09:16:17Z</time>
      </trkpt>
      <trkpt lat="44.84346" lon="5.2374">
        <ele>1024.75</ele>
        <time>2019-10-10T09:16:38Z</time>
      </trkpt>
      <trkpt lat="44.84338" lon="5.23743">
        <ele>1027.79</ele>
        <time>2019-10-10T09:16:58Z</time>
      </trkpt>
      <trkpt lat="44.84337" lon="5.23745">
        <ele>1028.72</ele>
        <time>2019-10-10T09:17:03Z</time>
      </trkpt>
      <trkpt lat="44.8433" lon="5.23746">
        <ele>1032.01</ele>
        <time>2019-10-10T09:17:19Z</time>
      </trkpt>
      <trkpt lat="44.84323" lon="5.2375">
        <ele>1035.08</ele>
        <time>2019-10-10T09:17:38Z</time>
      </trkpt>
      <trkpt lat="44.84317" lon="5.23751">
        <ele>1038.15</ele>
        <time>2019-10-10T09:17:54Z</time>
      </trkpt>
      <trkpt lat="44.8431" lon="5.23755">
        <ele>1040.67</ele>
        <time>2019-10-10T09:18:16Z</time>
      </trkpt>
      <trkpt lat="44.84317" lon="5.23762">
        <ele>1043.74</ele>
        <time>2019-10-10T09:18:36Z</time>
      </trkpt>
      <trkpt lat="44.84312" lon="5.23766">
        <ele>1046.96</ele>
        <time>2019-10-10T09:18:55Z</time>
      </trkpt>
      <trkpt lat="44.84305" lon="5.23771">
        <ele>1049.98</ele>
        <time>2019-10-10T09:19:16Z</time>
      </trkpt>
      <trkpt lat="44.843" lon="5.23772">
        <ele>1051.71</ele>
        <time>2019-10-10T09:19:30Z</time>
      </trkpt>
      <trkpt lat="44.84295" lon="5.23775">
        <ele>1054.8</ele>
        <time>2019-10-10T09:19:49Z</time>
      </trkpt>
      <trkpt lat="44.84289" lon="5.23783">
        <ele>1057.84</ele>
        <time>2019-10-10T09:20:11Z</time>
      </trkpt>
      <trkpt lat="44.84287" lon="5.23786">
        <ele>1060.93</ele>
        <time>2019-10-10T09:20:27Z</time>
      </trkpt>
      <trkpt lat="44.84287" lon="5.23787">
        <ele>1061.37</ele>
        <time>2019-10-10T09:20:29Z</time>
      </trkpt>
      <trkpt lat="44.84293" lon="5.23796">
        <ele>1064.66</ele>
        <time>2019-10-10T09:21:13Z</time>
      </trkpt>
      <trkpt lat="44.84294" lon="5.23804">
        <ele>1067.7</ele>
        <time>2019-10-10T09:21:28Z</time>
      </trkpt>
      <trkpt lat="44.84285" lon="5.23804">
        <ele>1070.81</ele>
        <time>2019-10-10T09:21:46Z</time>
      </trkpt>
      <trkpt lat="44.84281" lon="5.23806">
        <ele>1072.4</ele>
        <time>2019-10-10T09:21:53Z</time>
      </trkpt>
      <trkpt lat="44.84275" lon="5.23815">
        <ele>1075.64</ele>
        <time>2019-10-10T09:22:11Z</time>
      </trkpt>
      <trkpt lat="44.8427" lon="5.2382">
        <ele>1078.46</ele>
        <time>2019-10-10T09:22:23Z</time>
      </trkpt>
      <trkpt lat="44.84261" lon="5.23826">
        <ele>1081.53</ele>
        <time>2019-10-10T09:22:43Z</time>
      </trkpt>
      <trkpt lat="44.84265" lon="5.23837">
        <ele>1084.49</ele>
        <time>2019-10-10T09:23:13Z</time>
      </trkpt>
      <trkpt lat="44.84258" lon="5.23839">
        <ele>1087.52</ele>
        <time>2019-10-10T09:23:28Z</time>
      </trkpt>
      <trkpt lat="44.8425" lon="5.23843">
        <ele>1090.54</ele>
        <time>2019-10-10T09:23:47Z</time>
      </trkpt>
      <trkpt lat="44.84243" lon="5.23845">
        <ele>1093.67</ele>
        <time>2019-10-10T09:23:59Z</time>
      </trkpt>
      <trkpt lat="44.84235" lon="5.23838">
        <ele>1095.69</ele>
        <time>2019-10-10T09:24:10Z</time>
      </trkpt>
      <trkpt lat="44.84234" lon="5.23846">
        <ele>1098.79</ele>
        <time>2019-10-10T09:24:37Z</time>
      </trkpt>
      <trkpt lat="44.84224" lon="5.2385">
        <ele>1101.85</ele>
        <time>2019-10-10T09:25:01Z</time>
      </trkpt>
      <trkpt lat="44.84214" lon="5.23855">
        <ele>1105.06</ele>
        <time>2019-10-10T09:25:22Z</time>
      </trkpt>
      <trkpt lat="44.84209" lon="5.23863">
        <ele>1108.06</ele>
        <time>2019-10-10T09:25:40Z</time>
      </trkpt>
      <trkpt lat="44.84212" lon="5.23866">
        <ele>1111.28</ele>
        <time>2019-10-10T09:25:57Z</time>
      </trkpt>
      <trkpt lat="44.84221" lon="5.23879">
        <ele>1114.47</ele>
        <time>2019-10-10T09:26:17Z</time>
      </trkpt>
      <trkpt lat="44.84223" lon="5.23885">
        <ele>1117.37</ele>
        <time>2019-10-10T09:26:57Z</time>
      </trkpt>
      <trkpt lat="44.84231" lon="5.23899">
        <ele>1119.86</ele>
        <time>2019-10-10T09:27:38Z</time>
      </trkpt>
      <trkpt lat="44.84231" lon="5.23905">
        <ele>1122.86</ele>
        <time>2019-10-10T09:28:00Z</time>
      </trkpt>
      <trkpt lat="44.84234" lon="5.23902">
        <ele>1123.35</ele>
        <time>2019-10-10T09:28:26Z</time>
      </trkpt>
      <trkpt lat="44.84237" lon="5.23908">
        <ele>1123.79</ele>
        <time>2019-10-10T09:29:24Z</time>
      </trkpt>
      <trkpt lat="44.84238" lon="5.23907">
        <ele>1123.14</ele>
        <time>2019-10-10T09:30:09Z</time>
      </trkpt>
      <trkpt lat="44.84233" lon="5.23903">
        <ele>1123.78</ele>
        <time>2019-10-10T09:30:53Z</time>
      </trkpt>
      <trkpt lat="44.84233" lon="5.23902">
        <ele>1123.94</ele>
        <time>2019-10-10T09:31:35Z</time>
      </trkpt>
      <trkpt lat="44.84234" lon="5.23899">
        <ele>1124.22</ele>
        <time>2019-10-10T09:32:15Z</time>
      </trkpt>
      <trkpt lat="44.84234" lon="5.239">
        <ele>1123.59</ele>
        <time>2019-10-10T09:33:12Z</time>
      </trkpt>
      <trkpt lat="44.84236" lon="5.23905">
        <ele>1122.69</ele>
        <time>2019-10-10T09:34:19Z</time>
      </trkpt>
      <trkpt lat="44.84235" lon="5.23897">
        <ele>1122.92</ele>
        <time>2019-10-10T09:35:07Z</time>
      </trkpt>
      <trkpt lat="44.84235" lon="5.23897">
        <ele>1123.49</ele>
        <time>2019-10-10T09:36:08Z</time>
      </trkpt>
      <trkpt lat="44.84236" lon="5.23899">
        <ele>1123.9</ele>
        <time>2019-10-10T09:36:56Z</time>
      </trkpt>
      <trkpt lat="44.84239" lon="5.23901">
        <ele>1123.78</ele>
        <time>2019-10-10T09:37:42Z</time>
      </trkpt>
      <trkpt lat="44.84238" lon="5.23901">
        <ele>1123.55</ele>
        <time>2019-10-10T09:38:18Z</time>
      </trkpt>
      <trkpt lat="44.84236" lon="5.23897">
        <ele>1123.2</ele>
        <time>2019-10-10T09:39:34Z</time>
      </trkpt>
      <trkpt lat="44.84235" lon="5.23899">
        <ele>1123.55</ele>
        <time>2019-10-10T09:40:45Z</time>
      </trkpt>
      <trkpt lat="44.84234" lon="5.23893">
        <ele>1123.6</ele>
        <time>2019-10-10T09:41:38Z</time>
      </trkpt>
      <trkpt lat="44.84235" lon="5.23901">
        <ele>1123.29</ele>
        <time>2019-10-10T09:42:46Z</time>
      </trkpt>
      <trkpt lat="44.84238" lon="5.23904">
        <ele>1124.06</ele>
        <time>2019-10-10T09:43:50Z</time>
      </trkpt>
      <trkpt lat="44.8424" lon="5.23898">
        <ele>1123.35</ele>
        <time>2019-10-10T09:44:34Z</time>
      </trkpt>
      <trkpt lat="44.84236" lon="5.23902">
        <ele>1123.72</ele>
        <time>2019-10-10T09:45:34Z</time>
      </trkpt>
      <trkpt lat="44.84239" lon="5.23897">
        <ele>1124</ele>
        <time>2019-10-10T09:46:33Z</time>
      </trkpt>
      <trkpt lat="44.84228" lon="5.23905">
        <ele>1124.58</ele>
        <time>2019-10-10T09:47:16Z</time>
      </trkpt>
      <trkpt lat="44.84217" lon="5.23911">
        <ele>1127.13</ele>
        <time>2019-10-10T09:47:39Z</time>
      </trkpt>
      <trkpt lat="44.84205" lon="5.23916">
        <ele>1129.04</ele>
        <time>2019-10-10T09:48:03Z</time>
      </trkpt>
      <trkpt lat="44.84204" lon="5.23916">
        <ele>1129.84</ele>
        <time>2019-10-10T09:48:06Z</time>
      </trkpt>
      <trkpt lat="44.84192" lon="5.23923">
        <ele>1133.1</ele>
        <time>2019-10-10T09:48:32Z</time>
      </trkpt>
      <trkpt lat="44.84185" lon="5.23925">
        <ele>1136.31</ele>
        <time>2019-10-10T09:48:49Z</time>
      </trkpt>
      <trkpt lat="44.84183" lon="5.23923">
        <ele>1137.17</ele>
        <time>2019-10-10T09:48:53Z</time>
      </trkpt>
      <trkpt lat="44.84179" lon="5.23922">
        <ele>1137.98</ele>
        <time>2019-10-10T09:49:00Z</time>
      </trkpt>
      <trkpt lat="44.84168" lon="5.2392">
        <ele>1141.12</ele>
        <time>2019-10-10T09:49:24Z</time>
      </trkpt>
      <trkpt lat="44.84167" lon="5.23921">
        <ele>1141.71</ele>
        <time>2019-10-10T09:49:27Z</time>
      </trkpt>
      <trkpt lat="44.84158" lon="5.23923">
        <ele>1144.91</ele>
        <time>2019-10-10T09:49:49Z</time>
      </trkpt>
      <trkpt lat="44.84153" lon="5.23932">
        <ele>1147.95</ele>
        <time>2019-10-10T09:50:10Z</time>
      </trkpt>
      <trkpt lat="44.84149" lon="5.2394">
        <ele>1150.93</ele>
        <time>2019-10-10T09:50:36Z</time>
      </trkpt>
      <trkpt lat="44.84144" lon="5.2395">
        <ele>1154.03</ele>
        <time>2019-10-10T09:50:58Z</time>
      </trkpt>
      <trkpt lat="44.8414" lon="5.23957">
        <ele>1156.97</ele>
        <time>2019-10-10T09:51:16Z</time>
      </trkpt>
      <trkpt lat="44.84134" lon="5.23963">
        <ele>1158.65</ele>
        <time>2019-10-10T09:51:32Z</time>
      </trkpt>
      <trkpt lat="44.84126" lon="5.23969">
        <ele>1161.46</ele>
        <time>2019-10-10T09:51:49Z</time>
      </trkpt>
      <trkpt lat="44.8412" lon="5.23975">
        <ele>1163.32</ele>
        <time>2019-10-10T09:52:04Z</time>
      </trkpt>
      <trkpt lat="44.84119" lon="5.23984">
        <ele>1166.17</ele>
        <time>2019-10-10T09:52:22Z</time>
      </trkpt>
      <trkpt lat="44.8412" lon="5.23985">
        <ele>1166.81</ele>
        <time>2019-10-10T09:52:53Z</time>
      </trkpt>
      <trkpt lat="44.84118" lon="5.23986">
        <ele>1167.48</ele>
        <time>2019-10-10T09:53:23Z</time>
      </trkpt>
      <trkpt lat="44.84119" lon="5.23987">
        <ele>1167.26</ele>
        <time>2019-10-10T09:54:04Z</time>
      </trkpt>
      <trkpt lat="44.84119" lon="5.23986">
        <ele>1166.57</ele>
        <time>2019-10-10T09:54:48Z</time>
      </trkpt>
      <trkpt lat="44.84122" lon="5.23987">
        <ele>1167.06</ele>
        <time>2019-10-10T09:55:38Z</time>
      </trkpt>
      <trkpt lat="44.84118" lon="5.23985">
        <ele>1168.37</ele>
        <time>2019-10-10T09:55:55Z</time>
      </trkpt>
      <trkpt lat="44.8412" lon="5.23984">
        <ele>1167.68</ele>
        <time>2019-10-10T09:56:28Z</time>
      </trkpt>
      <trkpt lat="44.84118" lon="5.23986">
        <ele>1168.37</ele>
        <time>2019-10-10T09:56:55Z</time>
      </trkpt>
      <trkpt lat="44.84119" lon="5.23986">
        <ele>1168.1</ele>
        <time>2019-10-10T09:57:22Z</time>
      </trkpt>
      <trkpt lat="44.84119" lon="5.23985">
        <ele>1167.96</ele>
        <time>2019-10-10T09:57:46Z</time>
      </trkpt>
      <trkpt lat="44.84121" lon="5.23986">
        <ele>1167.9</ele>
        <time>2019-10-10T09:58:21Z</time>
      </trkpt>
      <trkpt lat="44.84123" lon="5.23989">
        <ele>1167.63</ele>
        <time>2019-10-10T09:58:41Z</time>
      </trkpt>
      <trkpt lat="44.84122" lon="5.23986">
        <ele>1167.64</ele>
        <time>2019-10-10T09:59:19Z</time>
      </trkpt>
      <trkpt lat="44.84119" lon="5.23979">
        <ele>1167.55</ele>
        <time>2019-10-10T09:59:45Z</time>
      </trkpt>
      <trkpt lat="44.8412" lon="5.23977">
        <ele>1166.88</ele>
        <time>2019-10-10T10:00:50Z</time>
      </trkpt>
      <trkpt lat="44.8412" lon="5.23984">
        <ele>1167.35</ele>
        <time>2019-10-10T10:01:45Z</time>
      </trkpt>
      <trkpt lat="44.84119" lon="5.23981">
        <ele>1167.18</ele>
        <time>2019-10-10T10:02:12Z</time>
      </trkpt>
      <trkpt lat="44.84119" lon="5.23985">
        <ele>1167.54</ele>
        <time>2019-10-10T10:02:37Z</time>
      </trkpt>
      <trkpt lat="44.84117" lon="5.23986">
        <ele>1167.41</ele>
        <time>2019-10-10T10:03:12Z</time>
      </trkpt>
      <trkpt lat="44.84109" lon="5.23985">
        <ele>1167.48</ele>
        <time>2019-10-10T10:03:36Z</time>
      </trkpt>
      <trkpt lat="44.84105" lon="5.23985">
        <ele>1167.41</ele>
        <time>2019-10-10T10:03:40Z</time>
      </trkpt>
      <trkpt lat="44.84095" lon="5.23982">
        <ele>1168.16</ele>
        <time>2019-10-10T10:03:53Z</time>
      </trkpt>
      <trkpt lat="44.84086" lon="5.23981">
        <ele>1170.8</ele>
        <time>2019-10-10T10:04:08Z</time>
      </trkpt>
      <trkpt lat="44.84078" lon="5.23976">
        <ele>1173.16</ele>
        <time>2019-10-10T10:04:23Z</time>
      </trkpt>
      <trkpt lat="44.8407" lon="5.23973">
        <ele>1175.28</ele>
        <time>2019-10-10T10:04:41Z</time>
      </trkpt>
      <trkpt lat="44.84062" lon="5.23967">
        <ele>1178.31</ele>
        <time>2019-10-10T10:04:56Z</time>
      </trkpt>
      <trkpt lat="44.84054" lon="5.23962">
        <ele>1181.39</ele>
        <time>2019-10-10T10:05:13Z</time>
      </trkpt>
      <trkpt lat="44.84049" lon="5.23958">
        <ele>1182.91</ele>
        <time>2019-10-10T10:05:29Z</time>
      </trkpt>
      <trkpt lat="44.84039" lon="5.23956">
        <ele>1185.5</ele>
        <time>2019-10-10T10:05:42Z</time>
      </trkpt>
      <trkpt lat="44.84034" lon="5.23955">
        <ele>1188.59</ele>
        <time>2019-10-10T10:06:01Z</time>
      </trkpt>
      <trkpt lat="44.84028" lon="5.23944">
        <ele>1191.32</ele>
        <time>2019-10-10T10:06:24Z</time>
      </trkpt>
      <trkpt lat="44.84025" lon="5.23932">
        <ele>1193.27</ele>
        <time>2019-10-10T10:06:40Z</time>
      </trkpt>
      <trkpt lat="44.84018" lon="5.2393">
        <ele>1195.08</ele>
        <time>2019-10-10T10:06:52Z</time>
      </trkpt>
      <trkpt lat="44.84011" lon="5.23931">
        <ele>1198.2</ele>
        <time>2019-10-10T10:07:07Z</time>
      </trkpt>
      <trkpt lat="44.84006" lon="5.23925">
        <ele>1200.17</ele>
        <time>2019-10-10T10:07:23Z</time>
      </trkpt>
      <trkpt lat="44.83997" lon="5.23922">
        <ele>1203.22</ele>
        <time>2019-10-10T10:07:42Z</time>
      </trkpt>
      <trkpt lat="44.83992" lon="5.23917">
        <ele>1205.78</ele>
        <time>2019-10-10T10:07:57Z</time>
      </trkpt>
      <trkpt lat="44.83985" lon="5.2391">
        <ele>1208.9</ele>
        <time>2019-10-10T10:08:14Z</time>
      </trkpt>
      <trkpt lat="44.8398" lon="5.23907">
        <ele>1210.86</ele>
        <time>2019-10-10T10:08:28Z</time>
      </trkpt>
      <trkpt lat="44.83974" lon="5.23904">
        <ele>1212.47</ele>
        <time>2019-10-10T10:08:40Z</time>
      </trkpt>
      <trkpt lat="44.83968" lon="5.23897">
        <ele>1215.33</ele>
        <time>2019-10-10T10:08:55Z</time>
      </trkpt>
      <trkpt lat="44.83962" lon="5.23889">
        <ele>1217.31</ele>
        <time>2019-10-10T10:09:12Z</time>
      </trkpt>
      <trkpt lat="44.83955" lon="5.23883">
        <ele>1219.74</ele>
        <time>2019-10-10T10:09:27Z</time>
      </trkpt>
      <trkpt lat="44.8395" lon="5.23877">
        <ele>1222.06</ele>
        <time>2019-10-10T10:09:40Z</time>
      </trkpt>
      <trkpt lat="44.83943" lon="5.23874">
        <ele>1225.19</ele>
        <time>2019-10-10T10:09:56Z</time>
      </trkpt>
      <trkpt lat="44.83939" lon="5.23893">
        <ele>1225.5</ele>
        <time>2019-10-10T10:10:15Z</time>
      </trkpt>
      <trkpt lat="44.83938" lon="5.23902">
        <ele>1222.99</ele>
        <time>2019-10-10T10:10:31Z</time>
      </trkpt>
      <trkpt lat="44.83938" lon="5.23898">
        <ele>1222.3</ele>
        <time>2019-10-10T10:10:47Z</time>
      </trkpt>
      <trkpt lat="44.8394" lon="5.23894">
        <ele>1222.67</ele>
        <time>2019-10-10T10:11:15Z</time>
      </trkpt>
      <trkpt lat="44.83941" lon="5.23894">
        <ele>1222.71</ele>
        <time>2019-10-10T10:11:17Z</time>
      </trkpt>
      <trkpt lat="44.8401" lon="5.23809">
        <ele>1212.71</ele>
        <time>2019-10-10T10:20:28Z</time>
      </trkpt>
      <trkpt lat="44.8401" lon="5.23808">
        <ele>1212.29</ele>
        <time>2019-10-10T10:20:48Z</time>
      </trkpt>
      <trkpt lat="44.83962" lon="5.2385">
        <ele>1225.64</ele>
        <time>2019-10-10T11:22:33Z</time>
      </trkpt>
      <trkpt lat="44.83953" lon="5.23851">
        <ele>1226.55</ele>
        <time>2019-10-10T11:22:55Z</time>
      </trkpt>
      <trkpt lat="44.83939" lon="5.23849">
        <ele>1227.54</ele>
        <time>2019-10-10T11:23:17Z</time>
      </trkpt>
      <trkpt lat="44.83922" lon="5.23854">
        <ele>1230.36</ele>
        <time>2019-10-10T11:23:40Z</time>
      </trkpt>
      <trkpt lat="44.83911" lon="5.23851">
        <ele>1232.41</ele>
        <time>2019-10-10T11:23:57Z</time>
      </trkpt>
      <trkpt lat="44.839" lon="5.23846">
        <ele>1235.42</ele>
        <time>2019-10-10T11:24:12Z</time>
      </trkpt>
      <trkpt lat="44.83885" lon="5.2384">
        <ele>1238.17</ele>
        <time>2019-10-10T11:24:31Z</time>
      </trkpt>
      <trkpt lat="44.83868" lon="5.23836">
        <ele>1241.02</ele>
        <time>2019-10-10T11:24:50Z</time>
      </trkpt>
      <trkpt lat="44.83856" lon="5.23831">
        <ele>1243.06</ele>
        <time>2019-10-10T11:25:04Z</time>
      </trkpt>
      <trkpt lat="44.83844" lon="5.23826">
        <ele>1245.14</ele>
        <time>2019-10-10T11:25:20Z</time>
      </trkpt>
      <trkpt lat="44.83831" lon="5.23815">
        <ele>1247.77</ele>
        <time>2019-10-10T11:25:39Z</time>
      </trkpt>
      <trkpt lat="44.83822" lon="5.23812">
        <ele>1249.17</ele>
        <time>2019-10-10T11:25:51Z</time>
      </trkpt>
      <trkpt lat="44.83811" lon="5.23807">
        <ele>1251.18</ele>
        <time>2019-10-10T11:26:07Z</time>
      </trkpt>
      <trkpt lat="44.83811" lon="5.23798">
        <ele>1252.32</ele>
        <time>2019-10-10T11:26:25Z</time>
      </trkpt>
      <trkpt lat="44.83809" lon="5.23805">
        <ele>1252.61</ele>
        <time>2019-10-10T11:26:44Z</time>
      </trkpt>
      <trkpt lat="44.83797" lon="5.23809">
        <ele>1253.71</ele>
        <time>2019-10-10T11:26:59Z</time>
      </trkpt>
      <trkpt lat="44.8378" lon="5.23798">
        <ele>1255.5</ele>
        <time>2019-10-10T11:27:19Z</time>
      </trkpt>
      <trkpt lat="44.83775" lon="5.23796">
        <ele>1256.25</ele>
        <time>2019-10-10T11:27:24Z</time>
      </trkpt>
      <trkpt lat="44.83763" lon="5.23793">
        <ele>1257.19</ele>
        <time>2019-10-10T11:27:36Z</time>
      </trkpt>
      <trkpt lat="44.83751" lon="5.23794">
        <ele>1259.1</ele>
        <time>2019-10-10T11:27:47Z</time>
      </trkpt>
      <trkpt lat="44.83746" lon="5.23792">
        <ele>1259.55</ele>
        <time>2019-10-10T11:27:52Z</time>
      </trkpt>
      <trkpt lat="44.83729" lon="5.23789">
        <ele>1260.18</ele>
        <time>2019-10-10T11:28:07Z</time>
      </trkpt>
      <trkpt lat="44.8372" lon="5.23787">
        <ele>1261.27</ele>
        <time>2019-10-10T11:28:16Z</time>
      </trkpt>
      <trkpt lat="44.83715" lon="5.23785">
        <ele>1261.67</ele>
        <time>2019-10-10T11:28:20Z</time>
      </trkpt>
      <trkpt lat="44.83713" lon="5.23784">
        <ele>1261.83</ele>
        <time>2019-10-10T11:28:22Z</time>
      </trkpt>
      <trkpt lat="44.83704" lon="5.2378">
        <ele>1262.22</ele>
        <time>2019-10-10T11:28:30Z</time>
      </trkpt>
      <trkpt lat="44.83697" lon="5.23777">
        <ele>1262.83</ele>
        <time>2019-10-10T11:28:43Z</time>
      </trkpt>
      <trkpt lat="44.83689" lon="5.23774">
        <ele>1264.86</ele>
        <time>2019-10-10T11:29:26Z</time>
      </trkpt>
      <trkpt lat="44.83683" lon="5.23768">
        <ele>1265.65</ele>
        <time>2019-10-10T11:29:33Z</time>
      </trkpt>
      <trkpt lat="44.83675" lon="5.2376">
        <ele>1266.41</ele>
        <time>2019-10-10T11:29:43Z</time>
      </trkpt>
      <trkpt lat="44.83664" lon="5.2375">
        <ele>1267.12</ele>
        <time>2019-10-10T11:29:55Z</time>
      </trkpt>
      <trkpt lat="44.83661" lon="5.23747">
        <ele>1267.54</ele>
        <time>2019-10-10T11:29:58Z</time>
      </trkpt>
      <trkpt lat="44.8365" lon="5.23738">
        <ele>1269.22</ele>
        <time>2019-10-10T11:30:09Z</time>
      </trkpt>
      <trkpt lat="44.83643" lon="5.2373">
        <ele>1270.29</ele>
        <time>2019-10-10T11:30:18Z</time>
      </trkpt>
      <trkpt lat="44.83632" lon="5.2372">
        <ele>1271.84</ele>
        <time>2019-10-10T11:30:29Z</time>
      </trkpt>
      <trkpt lat="44.83628" lon="5.23716">
        <ele>1272.33</ele>
        <time>2019-10-10T11:30:33Z</time>
      </trkpt>
      <trkpt lat="44.83617" lon="5.23706">
        <ele>1274.76</ele>
        <time>2019-10-10T11:30:47Z</time>
      </trkpt>
      <trkpt lat="44.83615" lon="5.23704">
        <ele>1274.88</ele>
        <time>2019-10-10T11:30:48Z</time>
      </trkpt>
      <trkpt lat="44.83599" lon="5.23688">
        <ele>1277.78</ele>
        <time>2019-10-10T11:31:06Z</time>
      </trkpt>
      <trkpt lat="44.8359" lon="5.23679">
        <ele>1278.7</ele>
        <time>2019-10-10T11:31:17Z</time>
      </trkpt>
      <trkpt lat="44.83587" lon="5.23676">
        <ele>1279.13</ele>
        <time>2019-10-10T11:31:20Z</time>
      </trkpt>
      <trkpt lat="44.83576" lon="5.23663">
        <ele>1280.36</ele>
        <time>2019-10-10T11:31:35Z</time>
      </trkpt>
      <trkpt lat="44.83562" lon="5.23642">
        <ele>1283.5</ele>
        <time>2019-10-10T11:31:58Z</time>
      </trkpt>
      <trkpt lat="44.83557" lon="5.23633">
        <ele>1285.06</ele>
        <time>2019-10-10T11:32:06Z</time>
      </trkpt>
      <trkpt lat="44.83544" lon="5.23621">
        <ele>1287</ele>
        <time>2019-10-10T11:32:19Z</time>
      </trkpt>
      <trkpt lat="44.83538" lon="5.23616">
        <ele>1287.37</ele>
        <time>2019-10-10T11:32:25Z</time>
      </trkpt>
      <trkpt lat="44.83532" lon="5.2361">
        <ele>1287.59</ele>
        <time>2019-10-10T11:32:32Z</time>
      </trkpt>
      <trkpt lat="44.83523" lon="5.23596">
        <ele>1288.81</ele>
        <time>2019-10-10T11:32:44Z</time>
      </trkpt>
      <trkpt lat="44.83518" lon="5.23589">
        <ele>1289.28</ele>
        <time>2019-10-10T11:32:51Z</time>
      </trkpt>
      <trkpt lat="44.83513" lon="5.23583">
        <ele>1289.43</ele>
        <time>2019-10-10T11:32:57Z</time>
      </trkpt>
      <trkpt lat="44.83509" lon="5.23575">
        <ele>1289.61</ele>
        <time>2019-10-10T11:33:03Z</time>
      </trkpt>
      <trkpt lat="44.83499" lon="5.23558">
        <ele>1291.6</ele>
        <time>2019-10-10T11:33:17Z</time>
      </trkpt>
      <trkpt lat="44.83496" lon="5.23553">
        <ele>1291.82</ele>
        <time>2019-10-10T11:33:21Z</time>
      </trkpt>
      <trkpt lat="44.83493" lon="5.2355">
        <ele>1292.03</ele>
        <time>2019-10-10T11:33:24Z</time>
      </trkpt>
      <trkpt lat="44.83485" lon="5.23537">
        <ele>1292.53</ele>
        <time>2019-10-10T11:33:35Z</time>
      </trkpt>
      <trkpt lat="44.8348" lon="5.2353">
        <ele>1293.26</ele>
        <time>2019-10-10T11:33:41Z</time>
      </trkpt>
      <trkpt lat="44.83473" lon="5.23522">
        <ele>1294.9</ele>
        <time>2019-10-10T11:33:49Z</time>
      </trkpt>
      <trkpt lat="44.83467" lon="5.23513">
        <ele>1296.14</ele>
        <time>2019-10-10T11:33:59Z</time>
      </trkpt>
      <trkpt lat="44.83457" lon="5.23497">
        <ele>1296.63</ele>
        <time>2019-10-10T11:34:10Z</time>
      </trkpt>
      <trkpt lat="44.83453" lon="5.23494">
        <ele>1297.44</ele>
        <time>2019-10-10T11:34:16Z</time>
      </trkpt>
      <trkpt lat="44.83451" lon="5.23492">
        <ele>1297.46</ele>
        <time>2019-10-10T11:34:18Z</time>
      </trkpt>
      <trkpt lat="44.83445" lon="5.23484">
        <ele>1297.27</ele>
        <time>2019-10-10T11:34:25Z</time>
      </trkpt>
      <trkpt lat="44.83441" lon="5.23481">
        <ele>1297.19</ele>
        <time>2019-10-10T11:34:29Z</time>
      </trkpt>
      <trkpt lat="44.83434" lon="5.23475">
        <ele>1297.11</ele>
        <time>2019-10-10T11:34:41Z</time>
      </trkpt>
      <trkpt lat="44.83433" lon="5.23468">
        <ele>1296.9</ele>
        <time>2019-10-10T11:35:00Z</time>
      </trkpt>
      <trkpt lat="44.83425" lon="5.23452">
        <ele>1298.64</ele>
        <time>2019-10-10T11:35:15Z</time>
      </trkpt>
      <trkpt lat="44.83424" lon="5.23448">
        <ele>1299.61</ele>
        <time>2019-10-10T11:35:18Z</time>
      </trkpt>
      <trkpt lat="44.83421" lon="5.2344">
        <ele>1301.69</ele>
        <time>2019-10-10T11:35:26Z</time>
      </trkpt>
      <trkpt lat="44.83417" lon="5.23428">
        <ele>1304.62</ele>
        <time>2019-10-10T11:35:38Z</time>
      </trkpt>
      <trkpt lat="44.83414" lon="5.23417">
        <ele>1307.79</ele>
        <time>2019-10-10T11:35:50Z</time>
      </trkpt>
      <trkpt lat="44.83409" lon="5.23404">
        <ele>1310.61</ele>
        <time>2019-10-10T11:36:05Z</time>
      </trkpt>
      <trkpt lat="44.83403" lon="5.23392">
        <ele>1313.42</ele>
        <time>2019-10-10T11:36:20Z</time>
      </trkpt>
      <trkpt lat="44.834" lon="5.23384">
        <ele>1315.72</ele>
        <time>2019-10-10T11:36:30Z</time>
      </trkpt>
      <trkpt lat="44.834" lon="5.23381">
        <ele>1316.17</ele>
        <time>2019-10-10T11:36:32Z</time>
      </trkpt>
      <trkpt lat="44.83393" lon="5.23369">
        <ele>1319.59</ele>
        <time>2019-10-10T11:36:46Z</time>
      </trkpt>
      <trkpt lat="44.83384" lon="5.23357">
        <ele>1322.72</ele>
        <time>2019-10-10T11:37:02Z</time>
      </trkpt>
      <trkpt lat="44.83379" lon="5.23347">
        <ele>1325.82</ele>
        <time>2019-10-10T11:37:19Z</time>
      </trkpt>
      <trkpt lat="44.83378" lon="5.23336">
        <ele>1328.91</ele>
        <time>2019-10-10T11:37:32Z</time>
      </trkpt>
      <trkpt lat="44.83378" lon="5.23329">
        <ele>1332.05</ele>
        <time>2019-10-10T11:37:44Z</time>
      </trkpt>
      <trkpt lat="44.83377" lon="5.2332">
        <ele>1335.15</ele>
        <time>2019-10-10T11:37:59Z</time>
      </trkpt>
      <trkpt lat="44.83378" lon="5.23312">
        <ele>1338.44</ele>
        <time>2019-10-10T11:38:11Z</time>
      </trkpt>
      <trkpt lat="44.8338" lon="5.23308">
        <ele>1340.06</ele>
        <time>2019-10-10T11:38:25Z</time>
      </trkpt>
      <trkpt lat="44.83381" lon="5.23307">
        <ele>1342.92</ele>
        <time>2019-10-10T11:38:49Z</time>
      </trkpt>
      <trkpt lat="44.83379" lon="5.23307">
        <ele>1340.24</ele>
        <time>2019-10-10T11:39:47Z</time>
      </trkpt>
      <trkpt lat="44.83381" lon="5.23307">
        <ele>1339.34</ele>
        <time>2019-10-10T11:40:35Z</time>
      </trkpt>
      <trkpt lat="44.8338" lon="5.23307">
        <ele>1340.45</ele>
        <time>2019-10-10T11:41:38Z</time>
      </trkpt>
      <trkpt lat="44.83379" lon="5.2331">
        <ele>1339.52</ele>
        <time>2019-10-10T11:42:19Z</time>
      </trkpt>
      <trkpt lat="44.83379" lon="5.23311">
        <ele>1338.87</ele>
        <time>2019-10-10T11:43:07Z</time>
      </trkpt>
      <trkpt lat="44.83378" lon="5.23308">
        <ele>1338.62</ele>
        <time>2019-10-10T11:44:06Z</time>
      </trkpt>
      <trkpt lat="44.83379" lon="5.23307">
        <ele>1339.11</ele>
        <time>2019-10-10T11:45:01Z</time>
      </trkpt>
      <trkpt lat="44.83379" lon="5.23305">
        <ele>1339.49</ele>
        <time>2019-10-10T11:45:49Z</time>
      </trkpt>
      <trkpt lat="44.83378" lon="5.23306">
        <ele>1339.63</ele>
        <time>2019-10-10T11:46:53Z</time>
      </trkpt>
      <trkpt lat="44.83379" lon="5.23306">
        <ele>1339.76</ele>
        <time>2019-10-10T11:47:30Z</time>
      </trkpt>
      <trkpt lat="44.83378" lon="5.23307">
        <ele>1339.03</ele>
        <time>2019-10-10T11:48:13Z</time>
      </trkpt>
      <trkpt lat="44.83378" lon="5.23307">
        <ele>1339.4</ele>
        <time>2019-10-10T11:49:04Z</time>
      </trkpt>
      <trkpt lat="44.83378" lon="5.23304">
        <ele>1339.67</ele>
        <time>2019-10-10T11:50:36Z</time>
      </trkpt>
      <trkpt lat="44.8338" lon="5.23299">
        <ele>1337.92</ele>
        <time>2019-10-10T11:50:55Z</time>
      </trkpt>
      <trkpt lat="44.83378" lon="5.23293">
        <ele>1335.73</ele>
        <time>2019-10-10T11:51:12Z</time>
      </trkpt>
      <trkpt lat="44.8338" lon="5.23287">
        <ele>1332.95</ele>
        <time>2019-10-10T11:51:24Z</time>
      </trkpt>
      <trkpt lat="44.83377" lon="5.23276">
        <ele>1330.23</ele>
        <time>2019-10-10T11:51:40Z</time>
      </trkpt>
      <trkpt lat="44.83377" lon="5.2327">
        <ele>1327.84</ele>
        <time>2019-10-10T11:51:52Z</time>
      </trkpt>
      <trkpt lat="44.83375" lon="5.23264">
        <ele>1324.82</ele>
        <time>2019-10-10T11:52:01Z</time>
      </trkpt>
      <trkpt lat="44.83377" lon="5.23257">
        <ele>1321.82</ele>
        <time>2019-10-10T11:52:15Z</time>
      </trkpt>
      <trkpt lat="44.83375" lon="5.2325">
        <ele>1318.95</ele>
        <time>2019-10-10T11:52:27Z</time>
      </trkpt>
      <trkpt lat="44.83375" lon="5.2324">
        <ele>1315.87</ele>
        <time>2019-10-10T11:52:40Z</time>
      </trkpt>
      <trkpt lat="44.83373" lon="5.2323">
        <ele>1313.1</ele>
        <time>2019-10-10T11:52:55Z</time>
      </trkpt>
      <trkpt lat="44.83375" lon="5.23221">
        <ele>1309.98</ele>
        <time>2019-10-10T11:53:06Z</time>
      </trkpt>
      <trkpt lat="44.83371" lon="5.2321">
        <ele>1306.98</ele>
        <time>2019-10-10T11:53:22Z</time>
      </trkpt>
      <trkpt lat="44.83369" lon="5.23204">
        <ele>1306.37</ele>
        <time>2019-10-10T11:53:27Z</time>
      </trkpt>
      <trkpt lat="44.83369" lon="5.23194">
        <ele>1305.43</ele>
        <time>2019-10-10T11:53:34Z</time>
      </trkpt>
      <trkpt lat="44.83369" lon="5.23184">
        <ele>1303.59</ele>
        <time>2019-10-10T11:53:42Z</time>
      </trkpt>
      <trkpt lat="44.83369" lon="5.23167">
        <ele>1302.37</ele>
        <time>2019-10-10T11:53:54Z</time>
      </trkpt>
      <trkpt lat="44.83373" lon="5.23155">
        <ele>1300.08</ele>
        <time>2019-10-10T11:54:09Z</time>
      </trkpt>
      <trkpt lat="44.83374" lon="5.23145">
        <ele>1298.39</ele>
        <time>2019-10-10T11:54:23Z</time>
      </trkpt>
      <trkpt lat="44.83376" lon="5.23138">
        <ele>1298.27</ele>
        <time>2019-10-10T11:54:35Z</time>
      </trkpt>
      <trkpt lat="44.83373" lon="5.23127">
        <ele>1297.48</ele>
        <time>2019-10-10T11:54:52Z</time>
      </trkpt>
      <trkpt lat="44.83369" lon="5.23119">
        <ele>1294.59</ele>
        <time>2019-10-10T11:55:11Z</time>
      </trkpt>
      <trkpt lat="44.83367" lon="5.23113">
        <ele>1291.43</ele>
        <time>2019-10-10T11:55:24Z</time>
      </trkpt>
      <trkpt lat="44.83367" lon="5.23104">
        <ele>1288.39</ele>
        <time>2019-10-10T11:55:40Z</time>
      </trkpt>
      <trkpt lat="44.83368" lon="5.23095">
        <ele>1285.37</ele>
        <time>2019-10-10T11:55:51Z</time>
      </trkpt>
      <trkpt lat="44.83365" lon="5.23091">
        <ele>1282.13</ele>
        <time>2019-10-10T11:56:02Z</time>
      </trkpt>
      <trkpt lat="44.83364" lon="5.23081">
        <ele>1278.87</ele>
        <time>2019-10-10T11:56:15Z</time>
      </trkpt>
      <trkpt lat="44.83365" lon="5.2308">
        <ele>1277.94</ele>
        <time>2019-10-10T11:56:17Z</time>
      </trkpt>
      <trkpt lat="44.83362" lon="5.23069">
        <ele>1274.93</ele>
        <time>2019-10-10T11:56:32Z</time>
      </trkpt>
      <trkpt lat="44.83363" lon="5.23061">
        <ele>1271.82</ele>
        <time>2019-10-10T11:56:43Z</time>
      </trkpt>
      <trkpt lat="44.83364" lon="5.23051">
        <ele>1268.78</ele>
        <time>2019-10-10T11:56:56Z</time>
      </trkpt>
      <trkpt lat="44.83363" lon="5.2304">
        <ele>1265.68</ele>
        <time>2019-10-10T11:57:09Z</time>
      </trkpt>
      <trkpt lat="44.83363" lon="5.2303">
        <ele>1262.48</ele>
        <time>2019-10-10T11:57:22Z</time>
      </trkpt>
      <trkpt lat="44.83362" lon="5.23026">
        <ele>1259.43</ele>
        <time>2019-10-10T11:57:31Z</time>
      </trkpt>
      <trkpt lat="44.83359" lon="5.23023">
        <ele>1256.27</ele>
        <time>2019-10-10T11:57:44Z</time>
      </trkpt>
      <trkpt lat="44.83357" lon="5.23013">
        <ele>1253.23</ele>
        <time>2019-10-10T11:57:57Z</time>
      </trkpt>
      <trkpt lat="44.8336" lon="5.23004">
        <ele>1250.13</ele>
        <time>2019-10-10T11:58:04Z</time>
      </trkpt>
      <trkpt lat="44.83362" lon="5.22996">
        <ele>1248.49</ele>
        <time>2019-10-10T11:58:10Z</time>
      </trkpt>
      <trkpt lat="44.83367" lon="5.22981">
        <ele>1245.26</ele>
        <time>2019-10-10T11:58:22Z</time>
      </trkpt>
      <trkpt lat="44.83372" lon="5.22972">
        <ele>1242.41</ele>
        <time>2019-10-10T11:58:44Z</time>
      </trkpt>
      <trkpt lat="44.83371" lon="5.22973">
        <ele>1242.6</ele>
        <time>2019-10-10T11:59:32Z</time>
      </trkpt>
      <trkpt lat="44.83371" lon="5.22973">
        <ele>1242.38</ele>
        <time>2019-10-10T12:00:13Z</time>
      </trkpt>
      <trkpt lat="44.8337" lon="5.22974">
        <ele>1242.6</ele>
        <time>2019-10-10T12:00:50Z</time>
      </trkpt>
      <trkpt lat="44.83369" lon="5.22974">
        <ele>1242.55</ele>
        <time>2019-10-10T12:01:52Z</time>
      </trkpt>
      <trkpt lat="44.83369" lon="5.22982">
        <ele>1243.46</ele>
        <time>2019-10-10T12:02:10Z</time>
      </trkpt>
      <trkpt lat="44.83372" lon="5.22981">
        <ele>1243.78</ele>
        <time>2019-10-10T12:03:11Z</time>
      </trkpt>
      <trkpt lat="44.83373" lon="5.22974">
        <ele>1243.38</ele>
        <time>2019-10-10T12:03:41Z</time>
      </trkpt>
      <trkpt lat="44.83375" lon="5.22975">
        <ele>1242.26</ele>
        <time>2019-10-10T12:04:53Z</time>
      </trkpt>
      <trkpt lat="44.83373" lon="5.22962">
        <ele>1242.6</ele>
        <time>2019-10-10T12:05:39Z</time>
      </trkpt>
      <trkpt lat="44.83375" lon="5.22949">
        <ele>1240.04</ele>
        <time>2019-10-10T12:05:54Z</time>
      </trkpt>
      <trkpt lat="44.83376" lon="5.22945">
        <ele>1239.33</ele>
        <time>2019-10-10T12:05:58Z</time>
      </trkpt>
      <trkpt lat="44.8338" lon="5.22932">
        <ele>1236.72</ele>
        <time>2019-10-10T12:06:12Z</time>
      </trkpt>
      <trkpt lat="44.8338" lon="5.22917">
        <ele>1234.37</ele>
        <time>2019-10-10T12:06:27Z</time>
      </trkpt>
      <trkpt lat="44.83378" lon="5.22906">
        <ele>1231.61</ele>
        <time>2019-10-10T12:06:36Z</time>
      </trkpt>
      <trkpt lat="44.83379" lon="5.22903">
        <ele>1230.93</ele>
        <time>2019-10-10T12:06:38Z</time>
      </trkpt>
      <trkpt lat="44.83378" lon="5.22886">
        <ele>1228.55</ele>
        <time>2019-10-10T12:06:51Z</time>
      </trkpt>
      <trkpt lat="44.83377" lon="5.2287">
        <ele>1226.22</ele>
        <time>2019-10-10T12:07:08Z</time>
      </trkpt>
      <trkpt lat="44.83375" lon="5.22864">
        <ele>1225.01</ele>
        <time>2019-10-10T12:07:15Z</time>
      </trkpt>
      <trkpt lat="44.83375" lon="5.2286">
        <ele>1224.62</ele>
        <time>2019-10-10T12:07:17Z</time>
      </trkpt>
      <trkpt lat="44.83379" lon="5.22849">
        <ele>1221.65</ele>
        <time>2019-10-10T12:07:28Z</time>
      </trkpt>
      <trkpt lat="44.83376" lon="5.22841">
        <ele>1219.82</ele>
        <time>2019-10-10T12:07:42Z</time>
      </trkpt>
      <trkpt lat="44.83375" lon="5.22832">
        <ele>1216.74</ele>
        <time>2019-10-10T12:07:56Z</time>
      </trkpt>
      <trkpt lat="44.83376" lon="5.22822">
        <ele>1214.17</ele>
        <time>2019-10-10T12:08:10Z</time>
      </trkpt>
      <trkpt lat="44.83375" lon="5.22808">
        <ele>1211.04</ele>
        <time>2019-10-10T12:08:24Z</time>
      </trkpt>
      <trkpt lat="44.83372" lon="5.22799">
        <ele>1207.85</ele>
        <time>2019-10-10T12:08:37Z</time>
      </trkpt>
      <trkpt lat="44.83372" lon="5.22788">
        <ele>1204.92</ele>
        <time>2019-10-10T12:09:00Z</time>
      </trkpt>
      <trkpt lat="44.83371" lon="5.2278">
        <ele>1201.95</ele>
        <time>2019-10-10T12:09:16Z</time>
      </trkpt>
      <trkpt lat="44.83372" lon="5.22772">
        <ele>1198.78</ele>
        <time>2019-10-10T12:09:29Z</time>
      </trkpt>
      <trkpt lat="44.8337" lon="5.22764">
        <ele>1195.54</ele>
        <time>2019-10-10T12:09:41Z</time>
      </trkpt>
      <trkpt lat="44.83371" lon="5.22754">
        <ele>1192.35</ele>
        <time>2019-10-10T12:09:54Z</time>
      </trkpt>
      <trkpt lat="44.83372" lon="5.22745">
        <ele>1191</ele>
        <time>2019-10-10T12:10:00Z</time>
      </trkpt>
      <trkpt lat="44.8337" lon="5.2272">
        <ele>1187.81</ele>
        <time>2019-10-10T12:10:19Z</time>
      </trkpt>
      <trkpt lat="44.8337" lon="5.22716">
        <ele>1187.79</ele>
        <time>2019-10-10T12:10:22Z</time>
      </trkpt>
      <trkpt lat="44.83371" lon="5.22696">
        <ele>1187.82</ele>
        <time>2019-10-10T12:10:41Z</time>
      </trkpt>
      <trkpt lat="44.83373" lon="5.22676">
        <ele>1187.95</ele>
        <time>2019-10-10T12:11:02Z</time>
      </trkpt>
      <trkpt lat="44.83373" lon="5.22661">
        <ele>1191.12</ele>
        <time>2019-10-10T12:11:24Z</time>
      </trkpt>
      <trkpt lat="44.83371" lon="5.22656">
        <ele>1194.14</ele>
        <time>2019-10-10T12:11:38Z</time>
      </trkpt>
      <trkpt lat="44.83372" lon="5.22649">
        <ele>1195.35</ele>
        <time>2019-10-10T12:11:55Z</time>
      </trkpt>
      <trkpt lat="44.83369" lon="5.22643">
        <ele>1198.51</ele>
        <time>2019-10-10T12:12:13Z</time>
      </trkpt>
      <trkpt lat="44.83366" lon="5.2264">
        <ele>1201.54</ele>
        <time>2019-10-10T12:12:29Z</time>
      </trkpt>
      <trkpt lat="44.83364" lon="5.22636">
        <ele>1204.65</ele>
        <time>2019-10-10T12:13:00Z</time>
      </trkpt>
      <trkpt lat="44.83367" lon="5.22633">
        <ele>1207.72</ele>
        <time>2019-10-10T12:13:21Z</time>
      </trkpt>
      <trkpt lat="44.8337" lon="5.22629">
        <ele>1210.18</ele>
        <time>2019-10-10T12:13:43Z</time>
      </trkpt>
      <trkpt lat="44.83371" lon="5.22627">
        <ele>1212.02</ele>
        <time>2019-10-10T12:14:01Z</time>
      </trkpt>
      <trkpt lat="44.83371" lon="5.22619">
        <ele>1214.71</ele>
        <time>2019-10-10T12:14:14Z</time>
      </trkpt>
      <trkpt lat="44.83373" lon="5.22614">
        <ele>1216.91</ele>
        <time>2019-10-10T12:14:32Z</time>
      </trkpt>
      <trkpt lat="44.83374" lon="5.22611">
        <ele>1218.66</ele>
        <time>2019-10-10T12:15:03Z</time>
      </trkpt>
      <trkpt lat="44.83374" lon="5.22612">
        <ele>1221.32</ele>
        <time>2019-10-10T12:15:21Z</time>
      </trkpt>
      <trkpt lat="44.83374" lon="5.22612">
        <ele>1221.42</ele>
        <time>2019-10-10T12:16:09Z</time>
      </trkpt>
      <trkpt lat="44.83373" lon="5.22612">
        <ele>1221.89</ele>
        <time>2019-10-10T12:17:14Z</time>
      </trkpt>
      <trkpt lat="44.83373" lon="5.22612">
        <ele>1221.58</ele>
        <time>2019-10-10T12:18:27Z</time>
      </trkpt>
      <trkpt lat="44.83373" lon="5.22611">
        <ele>1221.77</ele>
        <time>2019-10-10T12:18:56Z</time>
      </trkpt>
      <trkpt lat="44.83372" lon="5.22609">
        <ele>1221.39</ele>
        <time>2019-10-10T12:19:42Z</time>
      </trkpt>
      <trkpt lat="44.83373" lon="5.22595">
        <ele>1221.77</ele>
        <time>2019-10-10T12:20:05Z</time>
      </trkpt>
      <trkpt lat="44.83379" lon="5.22577">
        <ele>1219.85</ele>
        <time>2019-10-10T12:20:22Z</time>
      </trkpt>
      <trkpt lat="44.83376" lon="5.22569">
        <ele>1217.88</ele>
        <time>2019-10-10T12:20:28Z</time>
      </trkpt>
      <trkpt lat="44.83375" lon="5.22552">
        <ele>1217.79</ele>
        <time>2019-10-10T12:20:44Z</time>
      </trkpt>
      <trkpt lat="44.83376" lon="5.22538">
        <ele>1219.63</ele>
        <time>2019-10-10T12:20:59Z</time>
      </trkpt>
      <trkpt lat="44.83375" lon="5.22527">
        <ele>1220.59</ele>
        <time>2019-10-10T12:21:13Z</time>
      </trkpt>
      <trkpt lat="44.83374" lon="5.22514">
        <ele>1223.11</ele>
        <time>2019-10-10T12:21:31Z</time>
      </trkpt>
      <trkpt lat="44.83368" lon="5.22505">
        <ele>1224.36</ele>
        <time>2019-10-10T12:21:47Z</time>
      </trkpt>
      <trkpt lat="44.83364" lon="5.22499">
        <ele>1225.19</ele>
        <time>2019-10-10T12:22:05Z</time>
      </trkpt>
      <trkpt lat="44.83357" lon="5.22489">
        <ele>1226.02</ele>
        <time>2019-10-10T12:22:24Z</time>
      </trkpt>
      <trkpt lat="44.83354" lon="5.22482">
        <ele>1227.37</ele>
        <time>2019-10-10T12:22:39Z</time>
      </trkpt>
      <trkpt lat="44.83352" lon="5.22474">
        <ele>1228.62</ele>
        <time>2019-10-10T12:23:00Z</time>
      </trkpt>
      <trkpt lat="44.83351" lon="5.22468">
        <ele>1230.41</ele>
        <time>2019-10-10T12:23:30Z</time>
      </trkpt>
      <trkpt lat="44.83349" lon="5.22459">
        <ele>1232.58</ele>
        <time>2019-10-10T12:23:48Z</time>
      </trkpt>
      <trkpt lat="44.83347" lon="5.22456">
        <ele>1234.01</ele>
        <time>2019-10-10T12:24:07Z</time>
      </trkpt>
      <trkpt lat="44.83344" lon="5.22451">
        <ele>1234.74</ele>
        <time>2019-10-10T12:24:29Z</time>
      </trkpt>
      <trkpt lat="44.83335" lon="5.22445">
        <ele>1233.3</ele>
        <time>2019-10-10T12:25:05Z</time>
      </trkpt>
      <trkpt lat="44.83332" lon="5.2244">
        <ele>1232.41</ele>
        <time>2019-10-10T12:25:24Z</time>
      </trkpt>
      <trkpt lat="44.83329" lon="5.22437">
        <ele>1231.9</ele>
        <time>2019-10-10T12:25:45Z</time>
      </trkpt>
      <trkpt lat="44.83328" lon="5.22427">
        <ele>1230.41</ele>
        <time>2019-10-10T12:25:59Z</time>
      </trkpt>
      <trkpt lat="44.83328" lon="5.22425">
        <ele>1231.45</ele>
        <time>2019-10-10T12:26:29Z</time>
      </trkpt>
      <trkpt lat="44.83328" lon="5.22426">
        <ele>1231.6</ele>
        <time>2019-10-10T12:27:37Z</time>
      </trkpt>
      <trkpt lat="44.83328" lon="5.22409">
        <ele>1231.47</ele>
        <time>2019-10-10T12:28:05Z</time>
      </trkpt>
      <trkpt lat="44.83322" lon="5.22397">
        <ele>1231.8</ele>
        <time>2019-10-10T12:28:23Z</time>
      </trkpt>
      <trkpt lat="44.83319" lon="5.22386">
        <ele>1231.03</ele>
        <time>2019-10-10T12:28:38Z</time>
      </trkpt>
      <trkpt lat="44.8332" lon="5.2238">
        <ele>1231.27</ele>
        <time>2019-10-10T12:28:51Z</time>
      </trkpt>
      <trkpt lat="44.83316" lon="5.22373">
        <ele>1232.35</ele>
        <time>2019-10-10T12:29:04Z</time>
      </trkpt>
      <trkpt lat="44.83315" lon="5.22371">
        <ele>1232.27</ele>
        <time>2019-10-10T12:29:06Z</time>
      </trkpt>
      <trkpt lat="44.8331" lon="5.22359">
        <ele>1232.77</ele>
        <time>2019-10-10T12:29:23Z</time>
      </trkpt>
      <trkpt lat="44.83307" lon="5.22351">
        <ele>1234.57</ele>
        <time>2019-10-10T12:29:38Z</time>
      </trkpt>
      <trkpt lat="44.83301" lon="5.22342">
        <ele>1235.58</ele>
        <time>2019-10-10T12:29:55Z</time>
      </trkpt>
      <trkpt lat="44.83298" lon="5.22337">
        <ele>1235.47</ele>
        <time>2019-10-10T12:30:18Z</time>
      </trkpt>
      <trkpt lat="44.83296" lon="5.22334">
        <ele>1235.93</ele>
        <time>2019-10-10T12:31:01Z</time>
      </trkpt>
      <trkpt lat="44.83295" lon="5.22324">
        <ele>1236.92</ele>
        <time>2019-10-10T12:31:25Z</time>
      </trkpt>
      <trkpt lat="44.83295" lon="5.22318">
        <ele>1238.54</ele>
        <time>2019-10-10T12:31:43Z</time>
      </trkpt>
      <trkpt lat="44.83298" lon="5.2232">
        <ele>1238.66</ele>
        <time>2019-10-10T12:32:19Z</time>
      </trkpt>
      <trkpt lat="44.83297" lon="5.2232">
        <ele>1237.52</ele>
        <time>2019-10-10T12:33:03Z</time>
      </trkpt>
      <trkpt lat="44.83297" lon="5.22324">
        <ele>1238.96</ele>
        <time>2019-10-10T12:33:30Z</time>
      </trkpt>
      <trkpt lat="44.83297" lon="5.22321">
        <ele>1238.45</ele>
        <time>2019-10-10T12:34:02Z</time>
      </trkpt>
      <trkpt lat="44.83299" lon="5.22316">
        <ele>1238.09</ele>
        <time>2019-10-10T12:35:01Z</time>
      </trkpt>
      <trkpt lat="44.83298" lon="5.22314">
        <ele>1238.29</ele>
        <time>2019-10-10T12:35:21Z</time>
      </trkpt>
      <trkpt lat="44.83297" lon="5.22312">
        <ele>1238.03</ele>
        <time>2019-10-10T12:35:53Z</time>
      </trkpt>
      <trkpt lat="44.83297" lon="5.22313">
        <ele>1237.71</ele>
        <time>2019-10-10T12:36:14Z</time>
      </trkpt>
      <trkpt lat="44.83297" lon="5.22315">
        <ele>1238.1</ele>
        <time>2019-10-10T12:36:50Z</time>
      </trkpt>
      <trkpt lat="44.83296" lon="5.22317">
        <ele>1238.13</ele>
        <time>2019-10-10T12:37:26Z</time>
      </trkpt>
      <trkpt lat="44.83296" lon="5.22311">
        <ele>1238.64</ele>
        <time>2019-10-10T12:38:06Z</time>
      </trkpt>
      <trkpt lat="44.83293" lon="5.223">
        <ele>1236.37</ele>
        <time>2019-10-10T12:38:23Z</time>
      </trkpt>
      <trkpt lat="44.83287" lon="5.22287">
        <ele>1233.26</ele>
        <time>2019-10-10T12:38:37Z</time>
      </trkpt>
      <trkpt lat="44.83284" lon="5.22273">
        <ele>1231.76</ele>
        <time>2019-10-10T12:38:48Z</time>
      </trkpt>
      <trkpt lat="44.83282" lon="5.2227">
        <ele>1231.26</ele>
        <time>2019-10-10T12:38:51Z</time>
      </trkpt>
      <trkpt lat="44.83275" lon="5.22261">
        <ele>1230.7</ele>
        <time>2019-10-10T12:39:03Z</time>
      </trkpt>
      <trkpt lat="44.83271" lon="5.22253">
        <ele>1230.64</ele>
        <time>2019-10-10T12:39:10Z</time>
      </trkpt>
      <trkpt lat="44.83268" lon="5.22247">
        <ele>1229.96</ele>
        <time>2019-10-10T12:39:15Z</time>
      </trkpt>
      <trkpt lat="44.83267" lon="5.22245">
        <ele>1229.51</ele>
        <time>2019-10-10T12:39:17Z</time>
      </trkpt>
      <trkpt lat="44.83264" lon="5.22244">
        <ele>1228.63</ele>
        <time>2019-10-10T12:39:20Z</time>
      </trkpt>
      <trkpt lat="44.8326" lon="5.22231">
        <ele>1227.21</ele>
        <time>2019-10-10T12:39:29Z</time>
      </trkpt>
      <trkpt lat="44.83256" lon="5.2221">
        <ele>1224.9</ele>
        <time>2019-10-10T12:39:43Z</time>
      </trkpt>
      <trkpt lat="44.83253" lon="5.22202">
        <ele>1223.49</ele>
        <time>2019-10-10T12:39:48Z</time>
      </trkpt>
      <trkpt lat="44.83251" lon="5.22196">
        <ele>1222.32</ele>
        <time>2019-10-10T12:39:53Z</time>
      </trkpt>
      <trkpt lat="44.83246" lon="5.22182">
        <ele>1220.77</ele>
        <time>2019-10-10T12:40:01Z</time>
      </trkpt>
      <trkpt lat="44.83245" lon="5.22171">
        <ele>1219.42</ele>
        <time>2019-10-10T12:40:08Z</time>
      </trkpt>
      <trkpt lat="44.83244" lon="5.22165">
        <ele>1218.64</ele>
        <time>2019-10-10T12:40:12Z</time>
      </trkpt>
      <trkpt lat="44.83243" lon="5.22157">
        <ele>1217.35</ele>
        <time>2019-10-10T12:40:18Z</time>
      </trkpt>
      <trkpt lat="44.83242" lon="5.22148">
        <ele>1215.91</ele>
        <time>2019-10-10T12:40:26Z</time>
      </trkpt>
      <trkpt lat="44.83241" lon="5.22136">
        <ele>1214.3</ele>
        <time>2019-10-10T12:40:39Z</time>
      </trkpt>
      <trkpt lat="44.83239" lon="5.22127">
        <ele>1213.57</ele>
        <time>2019-10-10T12:40:47Z</time>
      </trkpt>
      <trkpt lat="44.83241" lon="5.22121">
        <ele>1212.61</ele>
        <time>2019-10-10T12:40:56Z</time>
      </trkpt>
      <trkpt lat="44.8324" lon="5.22119">
        <ele>1211.32</ele>
        <time>2019-10-10T12:41:15Z</time>
      </trkpt>
      <trkpt lat="44.83239" lon="5.22117">
        <ele>1211.35</ele>
        <time>2019-10-10T12:41:17Z</time>
      </trkpt>
      <trkpt lat="44.83235" lon="5.22104">
        <ele>1211.02</ele>
        <time>2019-10-10T12:41:25Z</time>
      </trkpt>
      <trkpt lat="44.83234" lon="5.221">
        <ele>1210.79</ele>
        <time>2019-10-10T12:41:29Z</time>
      </trkpt>
      <trkpt lat="44.83232" lon="5.22096">
        <ele>1210.7</ele>
        <time>2019-10-10T12:41:32Z</time>
      </trkpt>
      <trkpt lat="44.83219" lon="5.22079">
        <ele>1209.53</ele>
        <time>2019-10-10T12:41:48Z</time>
      </trkpt>
      <trkpt lat="44.83205" lon="5.22072">
        <ele>1209.08</ele>
        <time>2019-10-10T12:41:59Z</time>
      </trkpt>
      <trkpt lat="44.83195" lon="5.22071">
        <ele>1207.77</ele>
        <time>2019-10-10T12:42:10Z</time>
      </trkpt>
      <trkpt lat="44.83179" lon="5.2207">
        <ele>1205.51</ele>
        <time>2019-10-10T12:42:23Z</time>
      </trkpt>
      <trkpt lat="44.83169" lon="5.2206">
        <ele>1202.48</ele>
        <time>2019-10-10T12:42:39Z</time>
      </trkpt>
      <trkpt lat="44.83159" lon="5.22049">
        <ele>1200.97</ele>
        <time>2019-10-10T12:42:51Z</time>
      </trkpt>
      <trkpt lat="44.83155" lon="5.22033">
        <ele>1199.52</ele>
        <time>2019-10-10T12:43:03Z</time>
      </trkpt>
      <trkpt lat="44.83144" lon="5.22017">
        <ele>1198.38</ele>
        <time>2019-10-10T12:43:19Z</time>
      </trkpt>
      <trkpt lat="44.83135" lon="5.21999">
        <ele>1196.95</ele>
        <time>2019-10-10T12:43:36Z</time>
      </trkpt>
      <trkpt lat="44.83132" lon="5.21989">
        <ele>1196.34</ele>
        <time>2019-10-10T12:43:52Z</time>
      </trkpt>
      <trkpt lat="44.83127" lon="5.21975">
        <ele>1196.66</ele>
        <time>2019-10-10T12:44:11Z</time>
      </trkpt>
      <trkpt lat="44.83128" lon="5.21971">
        <ele>1198.2</ele>
        <time>2019-10-10T12:44:37Z</time>
      </trkpt>
      <trkpt lat="44.83128" lon="5.21968">
        <ele>1201.42</ele>
        <time>2019-10-10T12:44:51Z</time>
      </trkpt>
      <trkpt lat="44.83129" lon="5.21973">
        <ele>1202.42</ele>
        <time>2019-10-10T12:45:06Z</time>
      </trkpt>
      <trkpt lat="44.83129" lon="5.21971">
        <ele>1202.28</ele>
        <time>2019-10-10T12:45:29Z</time>
      </trkpt>
      <trkpt lat="44.83129" lon="5.21972">
        <ele>1202.24</ele>
        <time>2019-10-10T12:45:50Z</time>
      </trkpt>
      <trkpt lat="44.83128" lon="5.21969">
        <ele>1202.41</ele>
        <time>2019-10-10T12:46:28Z</time>
      </trkpt>
      <trkpt lat="44.83127" lon="5.21957">
        <ele>1201.97</ele>
        <time>2019-10-10T12:47:04Z</time>
      </trkpt>
      <trkpt lat="44.8311" lon="5.21935">
        <ele>1200.56</ele>
        <time>2019-10-10T12:47:22Z</time>
      </trkpt>
      <trkpt lat="44.83096" lon="5.21916">
        <ele>1198.47</ele>
        <time>2019-10-10T12:47:39Z</time>
      </trkpt>
      <trkpt lat="44.83081" lon="5.21901">
        <ele>1195.27</ele>
        <time>2019-10-10T12:47:54Z</time>
      </trkpt>
      <trkpt lat="44.8308" lon="5.219">
        <ele>1195.19</ele>
        <time>2019-10-10T12:47:55Z</time>
      </trkpt>
      <trkpt lat="44.83071" lon="5.21891">
        <ele>1193.91</ele>
        <time>2019-10-10T12:48:05Z</time>
      </trkpt>
      <trkpt lat="44.83063" lon="5.21883">
        <ele>1192.91</ele>
        <time>2019-10-10T12:48:14Z</time>
      </trkpt>
      <trkpt lat="44.83058" lon="5.21879">
        <ele>1191.85</ele>
        <time>2019-10-10T12:48:19Z</time>
      </trkpt>
      <trkpt lat="44.83041" lon="5.21864">
        <ele>1190.08</ele>
        <time>2019-10-10T12:48:35Z</time>
      </trkpt>
      <trkpt lat="44.83026" lon="5.21851">
        <ele>1188.05</ele>
        <time>2019-10-10T12:48:52Z</time>
      </trkpt>
      <trkpt lat="44.83013" lon="5.21835">
        <ele>1185.39</ele>
        <time>2019-10-10T12:49:07Z</time>
      </trkpt>
      <trkpt lat="44.8301" lon="5.21831">
        <ele>1185.09</ele>
        <time>2019-10-10T12:49:10Z</time>
      </trkpt>
      <trkpt lat="44.83" lon="5.21813">
        <ele>1183.43</ele>
        <time>2019-10-10T12:49:24Z</time>
      </trkpt>
      <trkpt lat="44.82999" lon="5.21808">
        <ele>1182.58</ele>
        <time>2019-10-10T12:49:39Z</time>
      </trkpt>
      <trkpt lat="44.82994" lon="5.21801">
        <ele>1182.59</ele>
        <time>2019-10-10T12:49:59Z</time>
      </trkpt>
      <trkpt lat="44.82993" lon="5.218">
        <ele>1182.57</ele>
        <time>2019-10-10T12:50:00Z</time>
      </trkpt>
      <trkpt lat="44.82991" lon="5.21797">
        <ele>1182.52</ele>
        <time>2019-10-10T12:50:03Z</time>
      </trkpt>
      <trkpt lat="44.82981" lon="5.21792">
        <ele>1181.15</ele>
        <time>2019-10-10T12:50:13Z</time>
      </trkpt>
      <trkpt lat="44.82974" lon="5.21787">
        <ele>1179.05</ele>
        <time>2019-10-10T12:50:21Z</time>
      </trkpt>
      <trkpt lat="44.82962" lon="5.21775">
        <ele>1175.76</ele>
        <time>2019-10-10T12:50:35Z</time>
      </trkpt>
      <trkpt lat="44.82961" lon="5.21775">
        <ele>1175.47</ele>
        <time>2019-10-10T12:50:36Z</time>
      </trkpt>
      <trkpt lat="44.82946" lon="5.21769">
        <ele>1172.24</ele>
        <time>2019-10-10T12:50:54Z</time>
      </trkpt>
      <trkpt lat="44.82932" lon="5.2177">
        <ele>1169.21</ele>
        <time>2019-10-10T12:51:09Z</time>
      </trkpt>
      <trkpt lat="44.82924" lon="5.21765">
        <ele>1168.32</ele>
        <time>2019-10-10T12:51:18Z</time>
      </trkpt>
      <trkpt lat="44.82914" lon="5.2176">
        <ele>1167.19</ele>
        <time>2019-10-10T12:51:28Z</time>
      </trkpt>
      <trkpt lat="44.82896" lon="5.21757">
        <ele>1165.39</ele>
        <time>2019-10-10T12:51:45Z</time>
      </trkpt>
      <trkpt lat="44.82882" lon="5.21751">
        <ele>1163.54</ele>
        <time>2019-10-10T12:52:01Z</time>
      </trkpt>
      <trkpt lat="44.82876" lon="5.21742">
        <ele>1160.54</ele>
        <time>2019-10-10T12:52:18Z</time>
      </trkpt>
      <trkpt lat="44.82861" lon="5.21725">
        <ele>1157.91</ele>
        <time>2019-10-10T12:52:35Z</time>
      </trkpt>
      <trkpt lat="44.82854" lon="5.21722">
        <ele>1159.72</ele>
        <time>2019-10-10T12:52:51Z</time>
      </trkpt>
      <trkpt lat="44.82853" lon="5.21722">
        <ele>1159.73</ele>
        <time>2019-10-10T12:52:52Z</time>
      </trkpt>
      <trkpt lat="44.8285" lon="5.21721">
        <ele>1159.79</ele>
        <time>2019-10-10T12:52:55Z</time>
      </trkpt>
      <trkpt lat="44.82837" lon="5.21716">
        <ele>1160.96</ele>
        <time>2019-10-10T12:53:09Z</time>
      </trkpt>
      <trkpt lat="44.82833" lon="5.21714">
        <ele>1161.94</ele>
        <time>2019-10-10T12:53:14Z</time>
      </trkpt>
      <trkpt lat="44.82828" lon="5.2171">
        <ele>1162.95</ele>
        <time>2019-10-10T12:53:20Z</time>
      </trkpt>
      <trkpt lat="44.82826" lon="5.21709">
        <ele>1163.49</ele>
        <time>2019-10-10T12:53:23Z</time>
      </trkpt>
      <trkpt lat="44.82813" lon="5.21692">
        <ele>1165.53</ele>
        <time>2019-10-10T12:53:41Z</time>
      </trkpt>
      <trkpt lat="44.82799" lon="5.2168">
        <ele>1166.68</ele>
        <time>2019-10-10T12:53:59Z</time>
      </trkpt>
      <trkpt lat="44.82784" lon="5.21668">
        <ele>1168.98</ele>
        <time>2019-10-10T12:54:20Z</time>
      </trkpt>
      <trkpt lat="44.82771" lon="5.21658">
        <ele>1170.01</ele>
        <time>2019-10-10T12:54:36Z</time>
      </trkpt>
      <trkpt lat="44.82765" lon="5.2165">
        <ele>1170.65</ele>
        <time>2019-10-10T12:54:54Z</time>
      </trkpt>
      <trkpt lat="44.82759" lon="5.21644">
        <ele>1170.69</ele>
        <time>2019-10-10T12:55:14Z</time>
      </trkpt>
      <trkpt lat="44.8276" lon="5.21642">
        <ele>1171.09</ele>
        <time>2019-10-10T12:55:38Z</time>
      </trkpt>
      <trkpt lat="44.82759" lon="5.21643">
        <ele>1171.27</ele>
        <time>2019-10-10T12:56:36Z</time>
      </trkpt>
      <trkpt lat="44.82757" lon="5.21643">
        <ele>1171.47</ele>
        <time>2019-10-10T12:57:10Z</time>
      </trkpt>
      <trkpt lat="44.82737" lon="5.21633">
        <ele>1172.49</ele>
        <time>2019-10-10T12:57:34Z</time>
      </trkpt>
      <trkpt lat="44.82734" lon="5.21632">
        <ele>1172.3</ele>
        <time>2019-10-10T12:58:13Z</time>
      </trkpt>
      <trkpt lat="44.82733" lon="5.21633">
        <ele>1171.97</ele>
        <time>2019-10-10T12:58:31Z</time>
      </trkpt>
      <trkpt lat="44.82736" lon="5.21633">
        <ele>1172.24</ele>
        <time>2019-10-10T12:58:49Z</time>
      </trkpt>
      <trkpt lat="44.82736" lon="5.21633">
        <ele>1172.04</ele>
        <time>2019-10-10T12:59:30Z</time>
      </trkpt>
      <trkpt lat="44.82739" lon="5.21636">
        <ele>1172.23</ele>
        <time>2019-10-10T12:59:57Z</time>
      </trkpt>
      <trkpt lat="44.82746" lon="5.21639">
        <ele>1172.13</ele>
        <time>2019-10-10T13:00:14Z</time>
      </trkpt>
      <trkpt lat="44.82754" lon="5.21642">
        <ele>1172.27</ele>
        <time>2019-10-10T13:00:25Z</time>
      </trkpt>
      <trkpt lat="44.82758" lon="5.21643">
        <ele>1171.75</ele>
        <time>2019-10-10T13:00:42Z</time>
      </trkpt>
      <trkpt lat="44.82756" lon="5.21633">
        <ele>1170.78</ele>
        <time>2019-10-10T13:01:33Z</time>
      </trkpt>
      <trkpt lat="44.82753" lon="5.2162">
        <ele>1167.77</ele>
        <time>2019-10-10T13:01:50Z</time>
      </trkpt>
      <trkpt lat="44.82753" lon="5.2161">
        <ele>1164.71</ele>
        <time>2019-10-10T13:02:01Z</time>
      </trkpt>
      <trkpt lat="44.82753" lon="5.21598">
        <ele>1161.7</ele>
        <time>2019-10-10T13:02:12Z</time>
      </trkpt>
      <trkpt lat="44.82755" lon="5.21586">
        <ele>1158.62</ele>
        <time>2019-10-10T13:02:26Z</time>
      </trkpt>
      <trkpt lat="44.82759" lon="5.21574">
        <ele>1155.61</ele>
        <time>2019-10-10T13:02:41Z</time>
      </trkpt>
      <trkpt lat="44.82762" lon="5.21567">
        <ele>1152.68</ele>
        <time>2019-10-10T13:02:51Z</time>
      </trkpt>
      <trkpt lat="44.82766" lon="5.21559">
        <ele>1149.63</ele>
        <time>2019-10-10T13:03:03Z</time>
      </trkpt>
      <trkpt lat="44.8276" lon="5.2155">
        <ele>1146.43</ele>
        <time>2019-10-10T13:03:19Z</time>
      </trkpt>
      <trkpt lat="44.82745" lon="5.21546">
        <ele>1144</ele>
        <time>2019-10-10T13:03:38Z</time>
      </trkpt>
      <trkpt lat="44.82726" lon="5.21538">
        <ele>1141.3</ele>
        <time>2019-10-10T13:04:03Z</time>
      </trkpt>
      <trkpt lat="44.82711" lon="5.21529">
        <ele>1138.23</ele>
        <time>2019-10-10T13:04:25Z</time>
      </trkpt>
      <trkpt lat="44.82702" lon="5.21517">
        <ele>1135.73</ele>
        <time>2019-10-10T13:04:49Z</time>
      </trkpt>
      <trkpt lat="44.82707" lon="5.21503">
        <ele>1132.83</ele>
        <time>2019-10-10T13:05:10Z</time>
      </trkpt>
      <trkpt lat="44.82704" lon="5.21497">
        <ele>1129.81</ele>
        <time>2019-10-10T13:05:20Z</time>
      </trkpt>
      <trkpt lat="44.82688" lon="5.21498">
        <ele>1128.72</ele>
        <time>2019-10-10T13:05:42Z</time>
      </trkpt>
      <trkpt lat="44.82673" lon="5.21484">
        <ele>1127.21</ele>
        <time>2019-10-10T13:06:05Z</time>
      </trkpt>
      <trkpt lat="44.82662" lon="5.21479">
        <ele>1126.95</ele>
        <time>2019-10-10T13:06:22Z</time>
      </trkpt>
      <trkpt lat="44.82656" lon="5.21472">
        <ele>1127.17</ele>
        <time>2019-10-10T13:06:38Z</time>
      </trkpt>
      <trkpt lat="44.8265" lon="5.21465">
        <ele>1125.86</ele>
        <time>2019-10-10T13:06:57Z</time>
      </trkpt>
      <trkpt lat="44.82649" lon="5.21456">
        <ele>1122.8</ele>
        <time>2019-10-10T13:07:18Z</time>
      </trkpt>
      <trkpt lat="44.82647" lon="5.21448">
        <ele>1121.01</ele>
        <time>2019-10-10T13:07:37Z</time>
      </trkpt>
      <trkpt lat="44.82645" lon="5.21449">
        <ele>1119.82</ele>
        <time>2019-10-10T13:08:35Z</time>
      </trkpt>
      <trkpt lat="44.82647" lon="5.21446">
        <ele>1117.35</ele>
        <time>2019-10-10T13:09:05Z</time>
      </trkpt>
      <trkpt lat="44.82646" lon="5.21436">
        <ele>1114.33</ele>
        <time>2019-10-10T13:09:31Z</time>
      </trkpt>
      <trkpt lat="44.82642" lon="5.2143">
        <ele>1112.78</ele>
        <time>2019-10-10T13:10:02Z</time>
      </trkpt>
      <trkpt lat="44.82641" lon="5.21429">
        <ele>1112.7</ele>
        <time>2019-10-10T13:10:37Z</time>
      </trkpt>
      <trkpt lat="44.8264" lon="5.21421">
        <ele>1112.19</ele>
        <time>2019-10-10T13:11:28Z</time>
      </trkpt>
      <trkpt lat="44.82638" lon="5.21425">
        <ele>1112.28</ele>
        <time>2019-10-10T13:12:19Z</time>
      </trkpt>
      <trkpt lat="44.82635" lon="5.21416">
        <ele>1111.63</ele>
        <time>2019-10-10T13:12:45Z</time>
      </trkpt>
      <trkpt lat="44.82629" lon="5.21413">
        <ele>1111.4</ele>
        <time>2019-10-10T13:13:42Z</time>
      </trkpt>
      <trkpt lat="44.82625" lon="5.21399">
        <ele>1111.06</ele>
        <time>2019-10-10T13:14:01Z</time>
      </trkpt>
      <trkpt lat="44.82613" lon="5.21372">
        <ele>1109.17</ele>
        <time>2019-10-10T13:14:24Z</time>
      </trkpt>
      <trkpt lat="44.82575" lon="5.21324">
        <ele>1108.07</ele>
        <time>2019-10-10T13:15:24Z</time>
      </trkpt>
      <trkpt lat="44.82572" lon="5.21317">
        <ele>1107.07</ele>
        <time>2019-10-10T13:16:04Z</time>
      </trkpt>
      <trkpt lat="44.82575" lon="5.21316">
        <ele>1107.31</ele>
        <time>2019-10-10T13:16:47Z</time>
      </trkpt>
      <trkpt lat="44.8257" lon="5.21296">
        <ele>1102.32</ele>
        <time>2019-10-10T13:17:27Z</time>
      </trkpt>
      <trkpt lat="44.82592" lon="5.21308">
        <ele>1097.81</ele>
        <time>2019-10-10T13:17:49Z</time>
      </trkpt>
      <trkpt lat="44.82563" lon="5.21308">
        <ele>1092.96</ele>
        <time>2019-10-10T13:18:09Z</time>
      </trkpt>
      <trkpt lat="44.82563" lon="5.21308">
        <ele>1089.6</ele>
        <time>2019-10-10T13:18:28Z</time>
      </trkpt>
      <trkpt lat="44.82563" lon="5.21308">
        <ele>1089.42</ele>
        <time>2019-10-10T13:18:29Z</time>
      </trkpt>
      <trkpt lat="44.82563" lon="5.21308">
        <ele>1086.4</ele>
        <time>2019-10-10T13:18:53Z</time>
      </trkpt>
      <trkpt lat="44.82563" lon="5.21308">
        <ele>1083.05</ele>
        <time>2019-10-10T13:19:21Z</time>
      </trkpt>
      <trkpt lat="44.82563" lon="5.21308">
        <ele>1080.04</ele>
        <time>2019-10-10T13:19:39Z</time>
      </trkpt>
      <trkpt lat="44.82563" lon="5.21308">
        <ele>1076.95</ele>
        <time>2019-10-10T13:19:53Z</time>
      </trkpt>
      <trkpt lat="44.82563" lon="5.21308">
        <ele>1073.93</ele>
        <time>2019-10-10T13:20:11Z</time>
      </trkpt>
      <trkpt lat="44.82563" lon="5.21308">
        <ele>1070.88</ele>
        <time>2019-10-10T13:20:47Z</time>
      </trkpt>
      <trkpt lat="44.82563" lon="5.21308">
        <ele>1067.87</ele>
        <time>2019-10-10T13:21:16Z</time>
      </trkpt>
      <trkpt lat="44.82563" lon="5.21308">
        <ele>1064.86</ele>
        <time>2019-10-10T13:22:06Z</time>
      </trkpt>
      <trkpt lat="44.82563" lon="5.21308">
        <ele>1061.52</ele>
        <time>2019-10-10T13:22:42Z</time>
      </trkpt>
      <trkpt lat="44.82563" lon="5.21308">
        <ele>1058.51</ele>
        <time>2019-10-10T13:23:26Z</time>
      </trkpt>
      <trkpt lat="44.82563" lon="5.21308">
        <ele>1055.47</ele>
        <time>2019-10-10T13:25:13Z</time>
      </trkpt>
      <trkpt lat="44.82563" lon="5.21308">
        <ele>1052.45</ele>
        <time>2019-10-10T13:25:29Z</time>
      </trkpt>
      <trkpt lat="44.82563" lon="5.21308">
        <ele>1049.38</ele>
        <time>2019-10-10T13:26:06Z</time>
      </trkpt>
      <trkpt lat="44.82563" lon="5.21308">
        <ele>1046.37</ele>
        <time>2019-10-10T13:26:20Z</time>
      </trkpt>
      <trkpt lat="44.82563" lon="5.21308">
        <ele>1043.31</ele>
        <time>2019-10-10T13:26:40Z</time>
      </trkpt>
      <trkpt lat="44.82563" lon="5.21308">
        <ele>1040.01</ele>
        <time>2019-10-10T13:26:50Z</time>
      </trkpt>
      <trkpt lat="44.82563" lon="5.21308">
        <ele>1036.92</ele>
        <time>2019-10-10T13:27:06Z</time>
      </trkpt>
      <trkpt lat="44.82563" lon="5.21308">
        <ele>1033.77</ele>
        <time>2019-10-10T13:27:17Z</time>
      </trkpt>
      <trkpt lat="44.82563" lon="5.21308">
        <ele>1030.76</ele>
        <time>2019-10-10T13:27:44Z</time>
      </trkpt>
      <trkpt lat="44.82563" lon="5.21308">
        <ele>1027.7</ele>
        <time>2019-10-10T13:28:17Z</time>
      </trkpt>
      <trkpt lat="44.82563" lon="5.21308">
        <ele>979.43</ele>
        <time>2019-10-10T13:40:40Z</time>
      </trkpt>
      <trkpt lat="44.83207" lon="5.21505">
        <ele>979.3</ele>
        <time>2019-10-10T13:40:41Z</time>
      </trkpt>
      <trkpt lat="44.83201" lon="5.21516">
        <ele>977.04</ele>
        <time>2019-10-10T13:40:59Z</time>
      </trkpt>
      <trkpt lat="44.83207" lon="5.21521">
        <ele>976.34</ele>
        <time>2019-10-10T13:41:06Z</time>
      </trkpt>
      <trkpt lat="44.83204" lon="5.21512">
        <ele>975.08</ele>
        <time>2019-10-10T13:41:15Z</time>
      </trkpt>
      <trkpt lat="44.83201" lon="5.21508">
        <ele>974.28</ele>
        <time>2019-10-10T13:41:19Z</time>
      </trkpt>
      <trkpt lat="44.83184" lon="5.21499">
        <ele>972.94</ele>
        <time>2019-10-10T13:41:38Z</time>
      </trkpt>
      <trkpt lat="44.83169" lon="5.21482">
        <ele>971.32</ele>
        <time>2019-10-10T13:42:03Z</time>
      </trkpt>
      <trkpt lat="44.8316" lon="5.21477">
        <ele>970.12</ele>
        <time>2019-10-10T13:42:11Z</time>
      </trkpt>
      <trkpt lat="44.83145" lon="5.21446">
        <ele>968.4</ele>
        <time>2019-10-10T13:42:36Z</time>
      </trkpt>
      <trkpt lat="44.83156" lon="5.21432">
        <ele>967.08</ele>
        <time>2019-10-10T13:42:54Z</time>
      </trkpt>
      <trkpt lat="44.83171" lon="5.21439">
        <ele>964.67</ele>
        <time>2019-10-10T13:43:21Z</time>
      </trkpt>
      <trkpt lat="44.83182" lon="5.2144">
        <ele>961.61</ele>
        <time>2019-10-10T13:43:33Z</time>
      </trkpt>
      <trkpt lat="44.83198" lon="5.21444">
        <ele>958.56</ele>
        <time>2019-10-10T13:43:48Z</time>
      </trkpt>
      <trkpt lat="44.83212" lon="5.21446">
        <ele>955.54</ele>
        <time>2019-10-10T13:44:03Z</time>
      </trkpt>
      <trkpt lat="44.83221" lon="5.21453">
        <ele>952.59</ele>
        <time>2019-10-10T13:44:15Z</time>
      </trkpt>
      <trkpt lat="44.8324" lon="5.21465">
        <ele>949.22</ele>
        <time>2019-10-10T13:44:34Z</time>
      </trkpt>
      <trkpt lat="44.8325" lon="5.21465">
        <ele>946.02</ele>
        <time>2019-10-10T13:44:47Z</time>
      </trkpt>
      <trkpt lat="44.83256" lon="5.21466">
        <ele>942.99</ele>
        <time>2019-10-10T13:44:56Z</time>
      </trkpt>
      <trkpt lat="44.8327" lon="5.21468">
        <ele>939.4</ele>
        <time>2019-10-10T13:45:12Z</time>
      </trkpt>
      <trkpt lat="44.83278" lon="5.21469">
        <ele>936.26</ele>
        <time>2019-10-10T13:45:20Z</time>
      </trkpt>
      <trkpt lat="44.83289" lon="5.21469">
        <ele>933.14</ele>
        <time>2019-10-10T13:45:33Z</time>
      </trkpt>
      <trkpt lat="44.83298" lon="5.21473">
        <ele>930.01</ele>
        <time>2019-10-10T13:45:43Z</time>
      </trkpt>
      <trkpt lat="44.83309" lon="5.21482">
        <ele>926.99</ele>
        <time>2019-10-10T13:45:56Z</time>
      </trkpt>
      <trkpt lat="44.83327" lon="5.21487">
        <ele>924.39</ele>
        <time>2019-10-10T13:46:16Z</time>
      </trkpt>
      <trkpt lat="44.83326" lon="5.21493">
        <ele>922.64</ele>
        <time>2019-10-10T13:46:38Z</time>
      </trkpt>
      <trkpt lat="44.8334" lon="5.21486">
        <ele>922.64</ele>
        <time>2019-10-10T13:46:54Z</time>
      </trkpt>
      <trkpt lat="44.83363" lon="5.21495">
        <ele>919.59</ele>
        <time>2019-10-10T13:47:13Z</time>
      </trkpt>
      <trkpt lat="44.83377" lon="5.21502">
        <ele>916.54</ele>
        <time>2019-10-10T13:47:26Z</time>
      </trkpt>
      <trkpt lat="44.83402" lon="5.21514">
        <ele>913.69</ele>
        <time>2019-10-10T13:47:47Z</time>
      </trkpt>
      <trkpt lat="44.83427" lon="5.21522">
        <ele>911.12</ele>
        <time>2019-10-10T13:48:06Z</time>
      </trkpt>
      <trkpt lat="44.83435" lon="5.21526">
        <ele>909.97</ele>
        <time>2019-10-10T13:48:13Z</time>
      </trkpt>
      <trkpt lat="44.83446" lon="5.21535">
        <ele>907.82</ele>
        <time>2019-10-10T13:48:27Z</time>
      </trkpt>
      <trkpt lat="44.83459" lon="5.21544">
        <ele>905.53</ele>
        <time>2019-10-10T13:48:42Z</time>
      </trkpt>
      <trkpt lat="44.83464" lon="5.21546">
        <ele>904.75</ele>
        <time>2019-10-10T13:48:48Z</time>
      </trkpt>
      <trkpt lat="44.83468" lon="5.21546">
        <ele>904.11</ele>
        <time>2019-10-10T13:48:53Z</time>
      </trkpt>
      <trkpt lat="44.83479" lon="5.21554">
        <ele>902.09</ele>
        <time>2019-10-10T13:49:08Z</time>
      </trkpt>
      <trkpt lat="44.8349" lon="5.21572">
        <ele>900.01</ele>
        <time>2019-10-10T13:49:26Z</time>
      </trkpt>
      <trkpt lat="44.83501" lon="5.21589">
        <ele>897</ele>
        <time>2019-10-10T13:49:44Z</time>
      </trkpt>
      <trkpt lat="44.83523" lon="5.21602">
        <ele>894.49</ele>
        <time>2019-10-10T13:50:08Z</time>
      </trkpt>
      <trkpt lat="44.83531" lon="5.21606">
        <ele>893.67</ele>
        <time>2019-10-10T13:50:17Z</time>
      </trkpt>
      <trkpt lat="44.83546" lon="5.21614">
        <ele>892.12</ele>
        <time>2019-10-10T13:50:31Z</time>
      </trkpt>
      <trkpt lat="44.83563" lon="5.21627">
        <ele>889.56</ele>
        <time>2019-10-10T13:50:46Z</time>
      </trkpt>
      <trkpt lat="44.83585" lon="5.21642">
        <ele>886.53</ele>
        <time>2019-10-10T13:51:09Z</time>
      </trkpt>
      <trkpt lat="44.8359" lon="5.21639">
        <ele>885.32</ele>
        <time>2019-10-10T13:51:19Z</time>
      </trkpt>
      <trkpt lat="44.83576" lon="5.21605">
        <ele>882.24</ele>
        <time>2019-10-10T13:51:44Z</time>
      </trkpt>
      <trkpt lat="44.83555" lon="5.21582">
        <ele>879.34</ele>
        <time>2019-10-10T13:52:11Z</time>
      </trkpt>
      <trkpt lat="44.83545" lon="5.21564">
        <ele>877.05</ele>
        <time>2019-10-10T13:52:30Z</time>
      </trkpt>
      <trkpt lat="44.83545" lon="5.21529">
        <ele>875.09</ele>
        <time>2019-10-10T13:52:51Z</time>
      </trkpt>
      <trkpt lat="44.83564" lon="5.2155">
        <ele>872.04</ele>
        <time>2019-10-10T13:53:16Z</time>
      </trkpt>
      <trkpt lat="44.83575" lon="5.21559">
        <ele>870.58</ele>
        <time>2019-10-10T13:53:26Z</time>
      </trkpt>
      <trkpt lat="44.83577" lon="5.2156">
        <ele>870.49</ele>
        <time>2019-10-10T13:53:27Z</time>
      </trkpt>
      <trkpt lat="44.83583" lon="5.21564">
        <ele>870.01</ele>
        <time>2019-10-10T13:53:31Z</time>
      </trkpt>
      <trkpt lat="44.83602" lon="5.21576">
        <ele>867.54</ele>
        <time>2019-10-10T13:53:54Z</time>
      </trkpt>
      <trkpt lat="44.83634" lon="5.21585">
        <ele>864.45</ele>
        <time>2019-10-10T13:54:18Z</time>
      </trkpt>
      <trkpt lat="44.83654" lon="5.21593">
        <ele>861.03</ele>
        <time>2019-10-10T13:54:39Z</time>
      </trkpt>
      <trkpt lat="44.83673" lon="5.21597">
        <ele>858.9</ele>
        <time>2019-10-10T13:54:56Z</time>
      </trkpt>
      <trkpt lat="44.83691" lon="5.21604">
        <ele>856.27</ele>
        <time>2019-10-10T13:55:13Z</time>
      </trkpt>
      <trkpt lat="44.83711" lon="5.21614">
        <ele>853.24</ele>
        <time>2019-10-10T13:55:32Z</time>
      </trkpt>
      <trkpt lat="44.83725" lon="5.2162">
        <ele>850.16</ele>
        <time>2019-10-10T13:55:49Z</time>
      </trkpt>
      <trkpt lat="44.83735" lon="5.2162">
        <ele>848.42</ele>
        <time>2019-10-10T13:56:00Z</time>
      </trkpt>
      <trkpt lat="44.83744" lon="5.21618">
        <ele>846.9</ele>
        <time>2019-10-10T13:56:07Z</time>
      </trkpt>
      <trkpt lat="44.83763" lon="5.21622">
        <ele>845.99</ele>
        <time>2019-10-10T13:56:18Z</time>
      </trkpt>
      <trkpt lat="44.83774" lon="5.21618">
        <ele>843.76</ele>
        <time>2019-10-10T13:56:32Z</time>
      </trkpt>
      <trkpt lat="44.83782" lon="5.21622">
        <ele>841.36</ele>
        <time>2019-10-10T13:56:44Z</time>
      </trkpt>
      <trkpt lat="44.83804" lon="5.2162">
        <ele>838.29</ele>
        <time>2019-10-10T13:57:04Z</time>
      </trkpt>
      <trkpt lat="44.83823" lon="5.21624">
        <ele>835.28</ele>
        <time>2019-10-10T13:57:22Z</time>
      </trkpt>
      <trkpt lat="44.83842" lon="5.21632">
        <ele>832.82</ele>
        <time>2019-10-10T13:57:43Z</time>
      </trkpt>
      <trkpt lat="44.83855" lon="5.21638">
        <ele>831.66</ele>
        <time>2019-10-10T13:57:55Z</time>
      </trkpt>
      <trkpt lat="44.83861" lon="5.21635">
        <ele>829.05</ele>
        <time>2019-10-10T13:58:16Z</time>
      </trkpt>
      <trkpt lat="44.83858" lon="5.21634">
        <ele>828.15</ele>
        <time>2019-10-10T13:58:22Z</time>
      </trkpt>
      <trkpt lat="44.83847" lon="5.21628">
        <ele>825.57</ele>
        <time>2019-10-10T13:58:38Z</time>
      </trkpt>
      <trkpt lat="44.83845" lon="5.21626">
        <ele>825.44</ele>
        <time>2019-10-10T13:58:40Z</time>
      </trkpt>
      <trkpt lat="44.83831" lon="5.21613">
        <ele>823.46</ele>
        <time>2019-10-10T13:58:55Z</time>
      </trkpt>
      <trkpt lat="44.83811" lon="5.2159">
        <ele>821.81</ele>
        <time>2019-10-10T13:59:13Z</time>
      </trkpt>
      <trkpt lat="44.83792" lon="5.21561">
        <ele>820.27</ele>
        <time>2019-10-10T13:59:33Z</time>
      </trkpt>
      <trkpt lat="44.83778" lon="5.21519">
        <ele>817.83</ele>
        <time>2019-10-10T13:59:54Z</time>
      </trkpt>
      <trkpt lat="44.83796" lon="5.21512">
        <ele>816.85</ele>
        <time>2019-10-10T14:00:14Z</time>
      </trkpt>
      <trkpt lat="44.83801" lon="5.21513">
        <ele>816.61</ele>
        <time>2019-10-10T14:00:18Z</time>
      </trkpt>
      <trkpt lat="44.83806" lon="5.21514">
        <ele>815.68</ele>
        <time>2019-10-10T14:00:34Z</time>
      </trkpt>
      <trkpt lat="44.83805" lon="5.21519">
        <ele>815.57</ele>
        <time>2019-10-10T14:01:15Z</time>
      </trkpt>
      <trkpt lat="44.83808" lon="5.21513">
        <ele>815.58</ele>
        <time>2019-10-10T14:01:45Z</time>
      </trkpt>
      <trkpt lat="44.83793" lon="5.2151">
        <ele>815.33</ele>
        <time>2019-10-10T14:02:20Z</time>
      </trkpt>
      <trkpt lat="44.83792" lon="5.21507">
        <ele>814.74</ele>
        <time>2019-10-10T14:02:57Z</time>
      </trkpt>
      <trkpt lat="44.83792" lon="5.21509">
        <ele>815</ele>
        <time>2019-10-10T14:03:22Z</time>
      </trkpt>
      <trkpt lat="44.83792" lon="5.21509">
        <ele>814.95</ele>
        <time>2019-10-10T14:04:06Z</time>
      </trkpt>
      <trkpt lat="44.83792" lon="5.21506">
        <ele>814.93</ele>
        <time>2019-10-10T14:04:10Z</time>
      </trkpt>
      <trkpt lat="44.83804" lon="5.21503">
        <ele>814.98</ele>
        <time>2019-10-10T14:04:54Z</time>
      </trkpt>
      <trkpt lat="44.83805" lon="5.21506">
        <ele>814.98</ele>
        <time>2019-10-10T14:04:56Z</time>
      </trkpt>
      <trkpt lat="44.83818" lon="5.2151">
        <ele>812.36</ele>
        <time>2019-10-10T14:05:12Z</time>
      </trkpt>
      <trkpt lat="44.83825" lon="5.21512">
        <ele>809.95</ele>
        <time>2019-10-10T14:05:25Z</time>
      </trkpt>
      <trkpt lat="44.83837" lon="5.21519">
        <ele>806.72</ele>
        <time>2019-10-10T14:05:39Z</time>
      </trkpt>
      <trkpt lat="44.83849" lon="5.21521">
        <ele>803.68</ele>
        <time>2019-10-10T14:05:51Z</time>
      </trkpt>
      <trkpt lat="44.84161" lon="5.21615">
        <ele>746.17</ele>
        <time>2019-10-10T14:12:32Z</time>
      </trkpt>
      <trkpt lat="44.84173" lon="5.21627">
        <ele>744.02</ele>
        <time>2019-10-10T14:12:55Z</time>
      </trkpt>
      <trkpt lat="44.84179" lon="5.21629">
        <ele>741.64</ele>
        <time>2019-10-10T14:13:06Z</time>
      </trkpt>
      <trkpt lat="44.84195" lon="5.21632">
        <ele>739.22</ele>
        <time>2019-10-10T14:13:24Z</time>
      </trkpt>
      <trkpt lat="44.84204" lon="5.21634">
        <ele>736.33</ele>
        <time>2019-10-10T14:13:39Z</time>
      </trkpt>
      <trkpt lat="44.84213" lon="5.21635">
        <ele>735.82</ele>
        <time>2019-10-10T14:13:47Z</time>
      </trkpt>
      <trkpt lat="44.84225" lon="5.21638">
        <ele>734.81</ele>
        <time>2019-10-10T14:13:56Z</time>
      </trkpt>
      <trkpt lat="44.84239" lon="5.21639">
        <ele>732.69</ele>
        <time>2019-10-10T14:14:10Z</time>
      </trkpt>
      <trkpt lat="44.84252" lon="5.21646">
        <ele>729.46</ele>
        <time>2019-10-10T14:14:23Z</time>
      </trkpt>
      <trkpt lat="44.84265" lon="5.21655">
        <ele>726.65</ele>
        <time>2019-10-10T14:14:36Z</time>
      </trkpt>
      <trkpt lat="44.8428" lon="5.21662">
        <ele>723.23</ele>
        <time>2019-10-10T14:14:51Z</time>
      </trkpt>
      <trkpt lat="44.84281" lon="5.21663">
        <ele>722.87</ele>
        <time>2019-10-10T14:14:53Z</time>
      </trkpt>
      <trkpt lat="44.84288" lon="5.21668">
        <ele>722.13</ele>
        <time>2019-10-10T14:15:00Z</time>
      </trkpt>
      <trkpt lat="44.84308" lon="5.21676">
        <ele>719.26</ele>
        <time>2019-10-10T14:15:17Z</time>
      </trkpt>
      <trkpt lat="44.84323" lon="5.21681">
        <ele>717.49</ele>
        <time>2019-10-10T14:15:32Z</time>
      </trkpt>
      <trkpt lat="44.84324" lon="5.21681">
        <ele>717.44</ele>
        <time>2019-10-10T14:15:33Z</time>
      </trkpt>
      <trkpt lat="44.84341" lon="5.21684">
        <ele>715.07</ele>
        <time>2019-10-10T14:15:48Z</time>
      </trkpt>
      <trkpt lat="44.84355" lon="5.21692">
        <ele>713.15</ele>
        <time>2019-10-10T14:16:03Z</time>
      </trkpt>
      <trkpt lat="44.84367" lon="5.21698">
        <ele>710.13</ele>
        <time>2019-10-10T14:16:21Z</time>
      </trkpt>
      <trkpt lat="44.84394" lon="5.217">
        <ele>707.07</ele>
        <time>2019-10-10T14:16:43Z</time>
      </trkpt>
      <trkpt lat="44.84418" lon="5.21714">
        <ele>704.02</ele>
        <time>2019-10-10T14:17:05Z</time>
      </trkpt>
      <trkpt lat="44.84433" lon="5.21725">
        <ele>700.94</ele>
        <time>2019-10-10T14:17:20Z</time>
      </trkpt>
      <trkpt lat="44.84447" lon="5.21734">
        <ele>697.87</ele>
        <time>2019-10-10T14:17:34Z</time>
      </trkpt>
      <trkpt lat="44.84451" lon="5.21736">
        <ele>697.13</ele>
        <time>2019-10-10T14:17:39Z</time>
      </trkpt>
      <trkpt lat="44.84454" lon="5.21738">
        <ele>696.71</ele>
        <time>2019-10-10T14:17:43Z</time>
      </trkpt>
      <trkpt lat="44.84461" lon="5.21739">
        <ele>696.27</ele>
        <time>2019-10-10T14:17:48Z</time>
      </trkpt>
      <trkpt lat="44.84478" lon="5.21744">
        <ele>692.82</ele>
        <time>2019-10-10T14:18:02Z</time>
      </trkpt>
      <trkpt lat="44.84494" lon="5.21749">
        <ele>690.41</ele>
        <time>2019-10-10T14:18:19Z</time>
      </trkpt>
      <trkpt lat="44.84515" lon="5.21752">
        <ele>688.21</ele>
        <time>2019-10-10T14:18:39Z</time>
      </trkpt>
      <trkpt lat="44.84534" lon="5.2175">
        <ele>686.36</ele>
        <time>2019-10-10T14:19:05Z</time>
      </trkpt>
      <trkpt lat="44.84549" lon="5.21747">
        <ele>683.04</ele>
        <time>2019-10-10T14:19:19Z</time>
      </trkpt>
      <trkpt lat="44.84568" lon="5.21736">
        <ele>680.03</ele>
        <time>2019-10-10T14:19:40Z</time>
      </trkpt>
      <trkpt lat="44.84597" lon="5.21732">
        <ele>676.95</ele>
        <time>2019-10-10T14:20:04Z</time>
      </trkpt>
      <trkpt lat="44.84618" lon="5.21739">
        <ele>674.41</ele>
        <time>2019-10-10T14:20:24Z</time>
      </trkpt>
      <trkpt lat="44.84645" lon="5.21736">
        <ele>671.38</ele>
        <time>2019-10-10T14:20:48Z</time>
      </trkpt>
      <trkpt lat="44.84664" lon="5.21731">
        <ele>670.45</ele>
        <time>2019-10-10T14:20:58Z</time>
      </trkpt>
      <trkpt lat="44.84678" lon="5.21732">
        <ele>668.6</ele>
        <time>2019-10-10T14:21:09Z</time>
      </trkpt>
      <trkpt lat="44.84694" lon="5.2174">
        <ele>667.36</ele>
        <time>2019-10-10T14:21:23Z</time>
      </trkpt>
      <trkpt lat="44.8471" lon="5.21746">
        <ele>665.29</ele>
        <time>2019-10-10T14:21:47Z</time>
      </trkpt>
      <trkpt lat="44.8473" lon="5.21742">
        <ele>663.89</ele>
        <time>2019-10-10T14:22:08Z</time>
      </trkpt>
      <trkpt lat="44.84748" lon="5.21738">
        <ele>662.87</ele>
        <time>2019-10-10T14:22:23Z</time>
      </trkpt>
      <trkpt lat="44.84766" lon="5.21725">
        <ele>661.77</ele>
        <time>2019-10-10T14:22:39Z</time>
      </trkpt>
      <trkpt lat="44.8477" lon="5.21721">
        <ele>661.66</ele>
        <time>2019-10-10T14:22:43Z</time>
      </trkpt>
      <trkpt lat="44.84792" lon="5.21711">
        <ele>660.92</ele>
        <time>2019-10-10T14:23:00Z</time>
      </trkpt>
      <trkpt lat="44.84811" lon="5.21709">
        <ele>660.86</ele>
        <time>2019-10-10T14:23:15Z</time>
      </trkpt>
      <trkpt lat="44.84815" lon="5.21709">
        <ele>660.83</ele>
        <time>2019-10-10T14:23:18Z</time>
      </trkpt>
      <trkpt lat="44.84823" lon="5.2171">
        <ele>660.75</ele>
        <time>2019-10-10T14:23:27Z</time>
      </trkpt>
      <trkpt lat="44.84842" lon="5.21712">
        <ele>660.93</ele>
        <time>2019-10-10T14:23:43Z</time>
      </trkpt>
      <trkpt lat="44.84857" lon="5.2172">
        <ele>661.91</ele>
        <time>2019-10-10T14:23:58Z</time>
      </trkpt>
      <trkpt lat="44.84862" lon="5.21725">
        <ele>662.33</ele>
        <time>2019-10-10T14:24:04Z</time>
      </trkpt>
      <trkpt lat="44.84864" lon="5.21729">
        <ele>662.45</ele>
        <time>2019-10-10T14:24:07Z</time>
      </trkpt>
      <trkpt lat="44.84866" lon="5.21751">
        <ele>663.59</ele>
        <time>2019-10-10T14:24:22Z</time>
      </trkpt>
      <trkpt lat="44.84869" lon="5.21772">
        <ele>664.27</ele>
        <time>2019-10-10T14:24:36Z</time>
      </trkpt>
      <trkpt lat="44.84883" lon="5.21804">
        <ele>663.3</ele>
        <time>2019-10-10T14:25:01Z</time>
      </trkpt>
      <trkpt lat="44.84895" lon="5.21811">
        <ele>662.14</ele>
        <time>2019-10-10T14:25:15Z</time>
      </trkpt>
      <trkpt lat="44.84909" lon="5.21793">
        <ele>663.59</ele>
        <time>2019-10-10T14:25:38Z</time>
      </trkpt>
      <trkpt lat="44.8493" lon="5.21764">
        <ele>665.51</ele>
        <time>2019-10-10T14:26:06Z</time>
      </trkpt>
      <trkpt lat="44.8495" lon="5.21739">
        <ele>667.54</ele>
        <time>2019-10-10T14:26:31Z</time>
      </trkpt>
      <trkpt lat="44.84954" lon="5.21705">
        <ele>668.31</ele>
        <time>2019-10-10T14:26:55Z</time>
      </trkpt>
      <trkpt lat="44.84956" lon="5.21675">
        <ele>667.45</ele>
        <time>2019-10-10T14:27:16Z</time>
      </trkpt>
      <trkpt lat="44.84956" lon="5.21669">
        <ele>667.44</ele>
        <time>2019-10-10T14:27:20Z</time>
      </trkpt>
      <trkpt lat="44.84957" lon="5.21658">
        <ele>666.85</ele>
        <time>2019-10-10T14:27:29Z</time>
      </trkpt>
      <trkpt lat="44.84968" lon="5.21633">
        <ele>667.2</ele>
        <time>2019-10-10T14:27:51Z</time>
      </trkpt>
      <trkpt lat="44.84982" lon="5.21639">
        <ele>665.38</ele>
        <time>2019-10-10T14:28:05Z</time>
      </trkpt>
      <trkpt lat="44.84998" lon="5.21656">
        <ele>663.06</ele>
        <time>2019-10-10T14:28:24Z</time>
      </trkpt>
      <trkpt lat="44.85018" lon="5.21676">
        <ele>661.28</ele>
        <time>2019-10-10T14:28:44Z</time>
      </trkpt>
      <trkpt lat="44.85033" lon="5.21692">
        <ele>658.92</ele>
        <time>2019-10-10T14:29:00Z</time>
      </trkpt>
      <trkpt lat="44.85046" lon="5.21704">
        <ele>658.17</ele>
        <time>2019-10-10T14:29:13Z</time>
      </trkpt>
      <trkpt lat="44.85063" lon="5.21721">
        <ele>657.17</ele>
        <time>2019-10-10T14:29:30Z</time>
      </trkpt>
      <trkpt lat="44.85072" lon="5.21733">
        <ele>655.79</ele>
        <time>2019-10-10T14:29:46Z</time>
      </trkpt>
      <trkpt lat="44.85094" lon="5.21765">
        <ele>653.61</ele>
        <time>2019-10-10T14:30:15Z</time>
      </trkpt>
      <trkpt lat="44.85099" lon="5.21785">
        <ele>652.88</ele>
        <time>2019-10-10T14:30:30Z</time>
      </trkpt>
      <trkpt lat="44.85109" lon="5.21829">
        <ele>652.45</ele>
        <time>2019-10-10T14:31:00Z</time>
      </trkpt>
      <trkpt lat="44.85117" lon="5.21852">
        <ele>652.33</ele>
        <time>2019-10-10T14:31:17Z</time>
      </trkpt>
      <trkpt lat="44.85133" lon="5.21869">
        <ele>651.59</ele>
        <time>2019-10-10T14:31:34Z</time>
      </trkpt>
      <trkpt lat="44.85156" lon="5.21887">
        <ele>651.35</ele>
        <time>2019-10-10T14:31:59Z</time>
      </trkpt>
      <trkpt lat="44.85159" lon="5.21886">
        <ele>651.29</ele>
        <time>2019-10-10T14:32:02Z</time>
      </trkpt>
      <trkpt lat="44.85194" lon="5.21881">
        <ele>651.06</ele>
        <time>2019-10-10T14:32:30Z</time>
      </trkpt>
      <trkpt lat="44.85199" lon="5.21866">
        <ele>651.83</ele>
        <time>2019-10-10T14:32:46Z</time>
      </trkpt>
      <trkpt lat="44.85206" lon="5.2185">
        <ele>650.14</ele>
        <time>2019-10-10T14:33:07Z</time>
      </trkpt>
      <trkpt lat="44.85208" lon="5.21849">
        <ele>650.67</ele>
        <time>2019-10-10T14:33:37Z</time>
      </trkpt>
      <trkpt lat="44.85205" lon="5.21846">
        <ele>650.49</ele>
        <time>2019-10-10T14:34:06Z</time>
      </trkpt>
      <trkpt lat="44.85204" lon="5.21846">
        <ele>650.12</ele>
        <time>2019-10-10T14:34:29Z</time>
      </trkpt>
      <trkpt lat="44.85205" lon="5.21846">
        <ele>649.9</ele>
        <time>2019-10-10T14:34:53Z</time>
      </trkpt>
      <trkpt lat="44.85206" lon="5.21846">
        <ele>649.81</ele>
        <time>2019-10-10T14:35:07Z</time>
      </trkpt>
      <trkpt lat="44.85206" lon="5.21846">
        <ele>649.84</ele>
        <time>2019-10-10T14:35:10Z</time>
      </trkpt>
      <trkpt lat="44.85206" lon="5.21849">
        <ele>650.47</ele>
        <time>2019-10-10T14:35:27Z</time>
      </trkpt>
    </trkseg>
  </trk>
</gpx>